Time,TemperatureF,DewpointF,PressureIn,WindDirection,WindDirectionDegrees,WindSpeedMPH,WindSpeedGustMPH,Humidity,HourlyPrecipIn,Conditions,Clouds,dailyrainin,SoftwareType,DateUTC
2013-01-08 00:02:00,29.8,19.0,30.15,North,-999,-999.0,-999.0,61,-99.99,,,-99.99,WSDL version 423,2013-01-08 06:02:00,
2013-01-08 00:03:00,29.9,19.2,30.15,North,-999,-999.0,-999.0,61,-99.99,,,-99.99,WSDL version 423,2013-01-08 06:03:00,
2013-01-08 00:06:00,30.1,19.5,30.15,North,-999,-999.0,-999.0,61,-99.99,,,-99.99,WSDL version 423,2013-01-08 06:06:00,
2013-01-08 00:11:00,30.5,19.8,30.15,North,-999,-999.0,-999.0,61,-99.99,,,-99.99,WSDL version 423,2013-01-08 06:11:00,
2013-01-08 00:16:00,30.8,20.3,30.15,North,-999,-999.0,-999.0,62,-99.99,,,-99.99,WSDL version 423,2013-01-08 06:16:00,
2013-01-08 00:17:00,30.8,20.4,30.15,North,-999,-999.0,-999.0,61,-99.99,,,-99.99,WSDL version 423,2013-01-08 06:17:00,
2013-01-08 00:20:00,31.0,20.5,30.15,North,-999,-999.0,-999.0,62,-99.99,,,-99.99,WSDL version 423,2013-01-08 06:20:00,
2013-01-08 00:21:00,31.0,20.5,30.15,North,-999,-999.0,-999.0,62,-99.99,,,-99.99,WSDL version 423,2013-01-08 06:21:00,
2013-01-08 00:24:00,30.8,20.4,30.15,North,-999,-999.0,-999.0,61,-99.99,,,-99.99,WSDL version 423,2013-01-08 06:24:00,
2013-01-08 00:26:00,30.6,20.1,30.15,North,-999,-999.0,-999.0,61,-99.99,,,-99.99,WSDL version 423,2013-01-08 06:26:00,
2013-01-08 00:29:00,30.5,19.8,30.15,North,-999,-999.0,-999.0,61,-99.99,,,-99.99,WSDL version 423,2013-01-08 06:29:00,
2013-01-08 00:31:00,30.4,19.8,30.15,North,-999,-999.0,-999.0,61,-99.99,,,-99.99,WSDL version 423,2013-01-08 06:31:00,
2013-01-08 00:34:00,30.4,19.9,30.15,North,-999,-999.0,-999.0,62,-99.99,,,-99.99,WSDL version 423,2013-01-08 06:34:00,
2013-01-08 00:35:00,30.4,20.0,30.15,North,-999,-999.0,-999.0,62,-99.99,,,-99.99,WSDL version 423,2013-01-08 06:35:00,
2013-01-08 00:36:00,30.4,20.0,30.15,North,-999,-999.0,-999.0,62,-99.99,,,-99.99,WSDL version 423,2013-01-08 06:36:00,
2013-01-08 00:41:00,30.4,20.1,30.15,North,-999,-999.0,-999.0,62,-99.99,,,-99.99,WSDL version 423,2013-01-08 06:41:00,
2013-01-08 00:42:00,30.4,20.1,30.18,North,-999,-999.0,-999.0,62,-99.99,,,-99.99,WSDL version 423,2013-01-08 06:42:00,
2013-01-08 00:46:00,30.6,20.2,30.18,North,-999,-999.0,-999.0,62,-99.99,,,-99.99,WSDL version 423,2013-01-08 06:46:00,
2013-01-08 00:47:00,30.6,20.2,30.18,North,-999,-999.0,-999.0,62,-99.99,,,-99.99,WSDL version 423,2013-01-08 06:47:00,
2013-01-08 00:50:00,30.5,20.2,30.18,North,-999,-999.0,-999.0,62,-99.99,,,-99.99,WSDL version 423,2013-01-08 06:50:00,
2013-01-08 00:53:00,30.5,20.2,30.18,North,-999,-999.0,-999.0,62,-99.99,,,-99.99,WSDL version 423,2013-01-08 06:53:00,
2013-01-08 00:55:00,30.5,20.2,30.18,North,-999,-999.0,-999.0,62,-99.99,,,-99.99,WSDL version 423,2013-01-08 06:55:00,
2013-01-08 00:59:00,30.5,20.3,30.15,North,-999,-999.0,-999.0,62,-99.99,,,-99.99,WSDL version 423,2013-01-08 06:59:00,
2013-01-08 01:00:00,30.5,20.4,30.15,North,-999,-999.0,-999.0,62,-99.99,,,-99.99,WSDL version 423,2013-01-08 07:00:00,
2013-01-08 01:01:00,30.5,20.5,30.15,North,-999,-999.0,-999.0,62,-99.99,,,-99.99,WSDL version 423,2013-01-08 07:01:00,
2013-01-08 01:03:00,30.6,20.6,30.15,North,-999,-999.0,-999.0,62,-99.99,,,-99.99,WSDL version 423,2013-01-08 07:03:00,
2013-01-08 01:05:00,30.7,20.7,30.15,North,-999,-999.0,-999.0,62,-99.99,,,-99.99,WSDL version 423,2013-01-08 07:05:00,
2013-01-08 01:06:00,30.8,20.7,30.15,North,-999,-999.0,-999.0,62,-99.99,,,-99.99,WSDL version 423,2013-01-08 07:06:00,
2013-01-08 01:09:00,30.9,20.9,30.15,North,-999,-999.0,-999.0,62,-99.99,,,-99.99,WSDL version 423,2013-01-08 07:09:00,
2013-01-08 01:10:00,31.0,20.9,30.15,North,-999,-999.0,-999.0,62,-99.99,,,-99.99,WSDL version 423,2013-01-08 07:10:00,
2013-01-08 01:14:00,31.1,21.0,30.18,North,-999,-999.0,-999.0,62,-99.99,,,-99.99,WSDL version 423,2013-01-08 07:14:00,
2013-01-08 01:15:00,31.1,21.1,30.18,North,-999,-999.0,-999.0,62,-99.99,,,-99.99,WSDL version 423,2013-01-08 07:15:00,
2013-01-08 01:20:00,31.4,21.3,30.18,North,-999,-999.0,-999.0,62,-99.99,,,-99.99,WSDL version 423,2013-01-08 07:20:00,
2013-01-08 01:21:00,31.4,21.3,30.18,North,-999,-999.0,-999.0,62,-99.99,,,-99.99,WSDL version 423,2013-01-08 07:21:00,
2013-01-08 01:24:00,31.4,21.4,30.18,North,-999,-999.0,-999.0,62,-99.99,,,-99.99,WSDL version 423,2013-01-08 07:24:00,
2013-01-08 01:26:00,31.4,21.4,30.18,North,-999,-999.0,-999.0,62,-99.99,,,-99.99,WSDL version 423,2013-01-08 07:26:00,
2013-01-08 01:28:00,31.5,21.5,30.18,North,-999,-999.0,-999.0,62,-99.99,,,-99.99,WSDL version 423,2013-01-08 07:28:00,
2013-01-08 01:29:00,31.6,21.5,30.18,North,-999,-999.0,-999.0,62,-99.99,,,-99.99,WSDL version 423,2013-01-08 07:29:00,
2013-01-08 01:33:00,31.7,21.6,30.18,North,-999,-999.0,-999.0,62,-99.99,,,-99.99,WSDL version 423,2013-01-08 07:33:00,
2013-01-08 01:34:00,31.7,21.7,30.18,North,-999,-999.0,-999.0,62,-99.99,,,-99.99,WSDL version 423,2013-01-08 07:34:00,
2013-01-08 01:37:00,31.8,21.7,30.18,North,-999,-999.0,-999.0,62,-99.99,,,-99.99,WSDL version 423,2013-01-08 07:37:00,
2013-01-08 01:40:00,31.8,21.7,30.18,North,-999,-999.0,-999.0,62,-99.99,,,-99.99,WSDL version 423,2013-01-08 07:40:00,
2013-01-08 01:43:00,31.9,21.8,30.15,North,-999,-999.0,-999.0,62,-99.99,,,-99.99,WSDL version 423,2013-01-08 07:43:00,
2013-01-08 01:46:00,32.0,21.9,30.15,North,-999,-999.0,-999.0,62,-99.99,,,-99.99,WSDL version 423,2013-01-08 07:46:00,
2013-01-08 01:48:00,32.0,21.9,30.15,North,-999,-999.0,-999.0,62,-99.99,,,-99.99,WSDL version 423,2013-01-08 07:48:00,
2013-01-08 01:50:00,32.0,22.0,30.15,North,-999,-999.0,-999.0,63,-99.99,,,-99.99,WSDL version 423,2013-01-08 07:50:00,
2013-01-08 01:52:00,32.0,22.1,30.15,North,-999,-999.0,-999.0,63,-99.99,,,-99.99,WSDL version 423,2013-01-08 07:52:00,
2013-01-08 01:54:00,32.0,22.0,30.15,North,-999,-999.0,-999.0,63,-99.99,,,-99.99,WSDL version 423,2013-01-08 07:54:00,
2013-01-08 01:55:00,32.0,21.8,30.15,North,-999,-999.0,-999.0,63,-99.99,,,-99.99,WSDL version 423,2013-01-08 07:55:00,
2013-01-08 01:56:00,32.1,21.7,30.15,North,-999,-999.0,-999.0,63,-99.99,,,-99.99,WSDL version 423,2013-01-08 07:56:00,
2013-01-08 01:58:00,32.2,21.1,30.15,North,-999,-999.0,-999.0,63,-99.99,,,-99.99,WSDL version 423,2013-01-08 07:58:00,
2013-01-08 02:00:00,32.2,21.2,30.15,North,-999,-999.0,-999.0,63,-99.99,,,-99.99,WSDL version 423,2013-01-08 08:00:00,
2013-01-08 02:01:00,32.2,21.2,30.15,North,-999,-999.0,-999.0,63,-99.99,,,-99.99,WSDL version 423,2013-01-08 08:01:00,
2013-01-08 02:03:00,32.3,21.2,30.15,North,-999,-999.0,-999.0,63,-99.99,,,-99.99,WSDL version 423,2013-01-08 08:03:00,
2013-01-08 02:05:00,32.3,21.3,30.15,North,-999,-999.0,-999.0,63,-99.99,,,-99.99,WSDL version 423,2013-01-08 08:05:00,
2013-01-08 02:07:00,32.3,21.3,30.15,North,-999,-999.0,-999.0,63,-99.99,,,-99.99,WSDL version 423,2013-01-08 08:07:00,
2013-01-08 02:10:00,32.3,21.3,30.15,North,-999,-999.0,-999.0,63,-99.99,,,-99.99,WSDL version 423,2013-01-08 08:10:00,
2013-01-08 02:11:00,32.3,21.3,30.15,North,-999,-999.0,-999.0,63,-99.99,,,-99.99,WSDL version 423,2013-01-08 08:11:00,
2013-01-08 02:15:00,32.3,21.5,30.15,North,-999,-999.0,-999.0,64,-99.99,,,-99.99,WSDL version 423,2013-01-08 08:15:00,
2013-01-08 02:16:00,32.3,21.6,30.15,North,-999,-999.0,-999.0,64,-99.99,,,-99.99,WSDL version 423,2013-01-08 08:16:00,
2013-01-08 02:19:00,32.2,21.5,30.15,North,-999,-999.0,-999.0,64,-99.99,,,-99.99,WSDL version 423,2013-01-08 08:19:00,
2013-01-08 02:21:00,32.2,21.5,30.15,North,-999,-999.0,-999.0,64,-99.99,,,-99.99,WSDL version 423,2013-01-08 08:21:00,
2013-01-08 02:24:00,32.3,21.6,30.15,North,-999,-999.0,-999.0,64,-99.99,,,-99.99,WSDL version 423,2013-01-08 08:24:00,
2013-01-08 02:26:00,32.3,21.6,30.15,North,-999,-999.0,-999.0,64,-99.99,,,-99.99,WSDL version 423,2013-01-08 08:26:00,
2013-01-08 02:28:00,32.4,21.7,30.15,North,-999,-999.0,-999.0,64,-99.99,,,-99.99,WSDL version 423,2013-01-08 08:28:00,
2013-01-08 02:30:00,32.5,21.8,30.15,North,-999,-999.0,-999.0,65,-99.99,,,-99.99,WSDL version 423,2013-01-08 08:30:00,
2013-01-08 02:31:00,32.5,21.9,30.15,North,-999,-999.0,-999.0,65,-99.99,,,-99.99,WSDL version 423,2013-01-08 08:31:00,
2013-01-08 02:32:00,32.5,21.9,30.15,North,-999,-999.0,-999.0,64,-99.99,,,-99.99,WSDL version 423,2013-01-08 08:32:00,
2013-01-08 02:33:00,32.5,21.9,30.15,North,-999,-999.0,-999.0,64,-99.99,,,-99.99,WSDL version 423,2013-01-08 08:33:00,
2013-01-08 02:38:00,32.6,22.2,30.15,North,-999,-999.0,-999.0,65,-99.99,,,-99.99,WSDL version 423,2013-01-08 08:38:00,
2013-01-08 02:41:00,32.6,22.2,30.15,North,0,0.0,0.0,65,-99.99,,,-99.99,WSDL version 423,2013-01-08 08:41:00,
2013-01-08 02:42:00,32.6,22.2,30.18,North,0,0.0,0.0,65,-99.99,,,-99.99,WSDL version 423,2013-01-08 08:42:00,
2013-01-08 02:43:00,32.6,22.2,30.18,North,0,0.0,0.0,65,-99.99,,,-99.99,WSDL version 423,2013-01-08 08:43:00,
2013-01-08 02:44:00,32.6,22.2,30.18,North,-999,-999.0,-999.0,65,-99.99,,,-99.99,WSDL version 423,2013-01-08 08:44:00,
2013-01-08 02:47:00,32.7,22.3,30.18,North,-999,-999.0,-999.0,65,-99.99,,,-99.99,WSDL version 423,2013-01-08 08:47:00,
2013-01-08 02:49:00,32.7,22.3,30.18,North,-999,-999.0,-999.0,65,-99.99,,,-99.99,WSDL version 423,2013-01-08 08:49:00,
2013-01-08 02:50:00,32.6,22.2,30.18,North,-999,-999.0,-999.0,65,-99.99,,,-99.99,WSDL version 423,2013-01-08 08:50:00,
2013-01-08 02:54:00,32.5,22.4,30.18,North,-999,-999.0,-999.0,66,-99.99,,,-99.99,WSDL version 423,2013-01-08 08:54:00,
2013-01-08 02:56:00,32.5,22.5,30.18,North,-999,-999.0,-999.0,66,-99.99,,,-99.99,WSDL version 423,2013-01-08 08:56:00,
2013-01-08 02:57:00,32.5,22.5,30.15,North,-999,-999.0,-999.0,66,-99.99,,,-99.99,WSDL version 423,2013-01-08 08:57:00,
2013-01-08 03:00:00,32.5,22.4,30.15,North,-999,-999.0,-999.0,66,-99.99,,,-99.99,WSDL version 423,2013-01-08 09:00:00,
2013-01-08 03:02:00,32.5,22.4,30.15,North,-999,-999.0,-999.0,66,-99.99,,,-99.99,WSDL version 423,2013-01-08 09:02:00,
2013-01-08 03:03:00,32.5,22.5,30.15,North,-999,-999.0,-999.0,66,-99.99,,,-99.99,WSDL version 423,2013-01-08 09:03:00,
2013-01-08 03:06:00,32.4,22.6,30.15,North,-999,-999.0,-999.0,67,-99.99,,,-99.99,WSDL version 423,2013-01-08 09:06:00,
2013-01-08 03:07:00,32.4,22.6,30.15,North,-999,-999.0,-999.0,67,-99.99,,,-99.99,WSDL version 423,2013-01-08 09:07:00,
2013-01-08 03:08:00,32.3,22.6,30.15,North,-999,-999.0,-999.0,67,-99.99,,,-99.99,WSDL version 423,2013-01-08 09:08:00,
2013-01-08 03:13:00,32.2,22.4,30.15,North,-999,-999.0,-999.0,67,-99.99,,,-99.99,WSDL version 423,2013-01-08 09:13:00,
2013-01-08 03:14:00,32.2,22.4,30.15,North,-999,-999.0,-999.0,67,-99.99,,,-99.99,WSDL version 423,2013-01-08 09:14:00,
2013-01-08 03:15:00,32.2,22.4,30.15,North,-999,-999.0,-999.0,67,-99.99,,,-99.99,WSDL version 423,2013-01-08 09:15:00,
2013-01-08 03:18:00,32.2,22.5,30.15,North,-999,-999.0,-999.0,68,-99.99,,,-99.99,WSDL version 423,2013-01-08 09:18:00,
2013-01-08 03:19:00,32.2,22.6,30.15,North,-999,-999.0,-999.0,68,-99.99,,,-99.99,WSDL version 423,2013-01-08 09:19:00,
2013-01-08 03:20:00,32.2,22.7,30.15,North,-999,-999.0,-999.0,68,-99.99,,,-99.99,WSDL version 423,2013-01-08 09:20:00,
2013-01-08 03:21:00,32.2,22.8,30.15,North,-999,-999.0,-999.0,68,-99.99,,,-99.99,WSDL version 423,2013-01-08 09:21:00,
2013-01-08 03:26:00,32.3,22.9,30.15,North,-999,-999.0,-999.0,68,-99.99,,,-99.99,WSDL version 423,2013-01-08 09:26:00,
2013-01-08 03:27:00,32.3,22.9,30.15,North,-999,-999.0,-999.0,68,-99.99,,,-99.99,WSDL version 423,2013-01-08 09:27:00,
2013-01-08 03:28:00,32.3,22.9,30.15,North,-999,-999.0,-999.0,68,-99.99,,,-99.99,WSDL version 423,2013-01-08 09:28:00,
2013-01-08 03:29:00,32.3,23.0,30.15,North,-999,-999.0,-999.0,69,-99.99,,,-99.99,WSDL version 423,2013-01-08 09:29:00,
2013-01-08 03:32:00,32.3,23.2,30.15,North,-999,-999.0,-999.0,69,-99.99,,,-99.99,WSDL version 423,2013-01-08 09:32:00,
2013-01-08 03:33:00,32.3,23.3,30.15,North,-999,-999.0,-999.0,69,-99.99,,,-99.99,WSDL version 423,2013-01-08 09:33:00,
2013-01-08 03:35:00,32.3,23.3,30.15,North,-999,-999.0,-999.0,69,-99.99,,,-99.99,WSDL version 423,2013-01-08 09:35:00,
2013-01-08 03:37:00,32.3,23.3,30.15,North,-999,-999.0,-999.0,69,-99.99,,,-99.99,WSDL version 423,2013-01-08 09:37:00,
2013-01-08 03:41:00,32.2,23.1,30.15,North,-999,-999.0,-999.0,69,-99.99,,,-99.99,WSDL version 423,2013-01-08 09:41:00,
2013-01-08 03:42:00,32.2,23.1,30.15,North,-999,-999.0,-999.0,69,-99.99,,,-99.99,WSDL version 423,2013-01-08 09:42:00,
2013-01-08 03:44:00,32.2,23.1,30.15,North,-999,-999.0,-999.0,69,-99.99,,,-99.99,WSDL version 423,2013-01-08 09:44:00,
2013-01-08 03:46:00,32.1,23.2,30.15,North,-999,-999.0,-999.0,69,-99.99,,,-99.99,WSDL version 423,2013-01-08 09:46:00,
2013-01-08 03:49:00,32.0,23.7,30.15,North,-999,-999.0,-999.0,69,-99.99,,,-99.99,WSDL version 423,2013-01-08 09:49:00,
2013-01-08 03:50:00,32.0,23.9,30.15,North,-999,-999.0,-999.0,69,-99.99,,,-99.99,WSDL version 423,2013-01-08 09:50:00,
2013-01-08 03:55:00,32.0,23.9,30.15,North,-999,-999.0,-999.0,69,-99.99,,,-99.99,WSDL version 423,2013-01-08 09:55:00,
2013-01-08 03:56:00,32.0,23.9,30.15,North,-999,-999.0,-999.0,69,-99.99,,,-99.99,WSDL version 423,2013-01-08 09:56:00,
2013-01-08 03:59:00,32.0,23.9,30.15,North,-999,-999.0,-999.0,69,-99.99,,,-99.99,WSDL version 423,2013-01-08 09:59:00,
2013-01-08 04:01:00,32.0,23.9,30.15,North,-999,-999.0,-999.0,69,-99.99,,,-99.99,WSDL version 423,2013-01-08 10:01:00,
2013-01-08 04:03:00,32.0,23.9,30.15,North,-999,-999.0,-999.0,69,-99.99,,,-99.99,WSDL version 423,2013-01-08 10:03:00,
2013-01-08 04:06:00,32.0,23.9,30.15,North,-999,-999.0,-999.0,69,-99.99,,,-99.99,WSDL version 423,2013-01-08 10:06:00,
2013-01-08 04:09:00,32.0,23.9,30.15,North,-999,-999.0,-999.0,70,-99.99,,,-99.99,WSDL version 423,2013-01-08 10:09:00,
2013-01-08 04:11:00,32.1,23.8,30.15,North,-999,-999.0,-999.0,70,-99.99,,,-99.99,WSDL version 423,2013-01-08 10:11:00,
2013-01-08 04:14:00,32.2,23.4,30.15,North,-999,-999.0,-999.0,70,-99.99,,,-99.99,WSDL version 423,2013-01-08 10:14:00,
2013-01-08 04:16:00,32.2,23.4,30.15,North,-999,-999.0,-999.0,70,-99.99,,,-99.99,WSDL version 423,2013-01-08 10:16:00,
2013-01-08 04:19:00,32.2,23.4,30.15,North,-999,-999.0,-999.0,70,-99.99,,,-99.99,WSDL version 423,2013-01-08 10:19:00,
2013-01-08 04:20:00,32.2,23.4,30.15,North,-999,-999.0,-999.0,70,-99.99,,,-99.99,WSDL version 423,2013-01-08 10:20:00,
2013-01-08 04:21:00,32.2,23.4,30.15,North,-999,-999.0,-999.0,70,-99.99,,,-99.99,WSDL version 423,2013-01-08 10:21:00,
2013-01-08 04:26:00,32.2,23.4,30.15,North,-999,-999.0,-999.0,70,-99.99,,,-99.99,WSDL version 423,2013-01-08 10:26:00,
2013-01-08 04:29:00,32.2,23.4,30.18,North,-999,-999.0,-999.0,70,-99.99,,,-99.99,WSDL version 423,2013-01-08 10:29:00,
2013-01-08 04:33:00,32.2,23.4,30.18,North,-999,-999.0,-999.0,70,-99.99,,,-99.99,WSDL version 423,2013-01-08 10:33:00,
2013-01-08 04:34:00,32.2,23.4,30.18,North,-999,-999.0,-999.0,70,-99.99,,,-99.99,WSDL version 423,2013-01-08 10:34:00,
2013-01-08 04:38:00,32.2,23.4,30.18,North,-999,-999.0,-999.0,70,-99.99,,,-99.99,WSDL version 423,2013-01-08 10:38:00,
2013-01-08 04:39:00,32.2,23.4,30.18,North,-999,-999.0,-999.0,70,-99.99,,,-99.99,WSDL version 423,2013-01-08 10:39:00,
2013-01-08 04:40:00,32.2,23.4,30.18,North,-999,-999.0,-999.0,70,-99.99,,,-99.99,WSDL version 423,2013-01-08 10:40:00,
2013-01-08 04:44:00,32.1,23.6,30.15,North,-999,-999.0,-999.0,70,-99.99,,,-99.99,WSDL version 423,2013-01-08 10:44:00,
2013-01-08 04:45:00,32.1,23.7,30.15,North,-999,-999.0,-999.0,70,-99.99,,,-99.99,WSDL version 423,2013-01-08 10:45:00,
2013-01-08 04:48:00,32.0,24.2,30.15,North,-999,-999.0,-999.0,70,-99.99,,,-99.99,WSDL version 423,2013-01-08 10:48:00,
2013-01-08 04:49:00,32.0,24.2,30.15,North,-999,-999.0,-999.0,70,-99.99,,,-99.99,WSDL version 423,2013-01-08 10:49:00,
2013-01-08 04:53:00,31.9,24.1,30.15,North,-999,-999.0,-999.0,70,-99.99,,,-99.99,WSDL version 423,2013-01-08 10:53:00,
2013-01-08 04:54:00,31.9,24.1,30.15,North,-999,-999.0,-999.0,70,-99.99,,,-99.99,WSDL version 423,2013-01-08 10:54:00,
2013-01-08 04:55:00,31.8,24.0,30.15,North,-999,-999.0,-999.0,70,-99.99,,,-99.99,WSDL version 423,2013-01-08 10:55:00,
2013-01-08 04:58:00,31.7,23.9,30.15,North,-999,-999.0,-999.0,70,-99.99,,,-99.99,WSDL version 423,2013-01-08 10:58:00,
2013-01-08 05:00:00,31.6,23.9,30.15,North,-999,-999.0,-999.0,70,-99.99,,,-99.99,WSDL version 423,2013-01-08 11:00:00,
2013-01-08 05:01:00,31.6,23.9,30.15,North,-999,-999.0,-999.0,70,-99.99,,,-99.99,WSDL version 423,2013-01-08 11:01:00,
2013-01-08 05:03:00,31.6,23.9,30.15,North,-999,-999.0,-999.0,70,-99.99,,,-99.99,WSDL version 423,2013-01-08 11:03:00,
2013-01-08 05:06:00,31.6,23.8,30.15,North,-999,-999.0,-999.0,70,-99.99,,,-99.99,WSDL version 423,2013-01-08 11:06:00,
2013-01-08 05:09:00,31.5,23.7,30.15,North,-999,-999.0,-999.0,70,-99.99,,,-99.99,WSDL version 423,2013-01-08 11:09:00,
2013-01-08 05:11:00,31.4,23.7,30.15,North,-999,-999.0,-999.0,70,-99.99,,,-99.99,WSDL version 423,2013-01-08 11:11:00,
2013-01-08 05:12:00,31.4,23.7,30.15,North,-999,-999.0,-999.0,70,-99.99,,,-99.99,WSDL version 423,2013-01-08 11:12:00,
2013-01-08 05:15:00,31.4,23.9,30.15,North,-999,-999.0,-999.0,71,-99.99,,,-99.99,WSDL version 423,2013-01-08 11:15:00,
2013-01-08 05:16:00,31.4,23.9,30.15,North,-999,-999.0,-999.0,71,-99.99,,,-99.99,WSDL version 423,2013-01-08 11:16:00,
2013-01-08 05:20:00,31.4,24.0,30.15,North,-999,-999.0,-999.0,71,-99.99,,,-99.99,WSDL version 423,2013-01-08 11:20:00,
2013-01-08 05:21:00,31.4,24.0,30.15,North,-999,-999.0,-999.0,71,-99.99,,,-99.99,WSDL version 423,2013-01-08 11:21:00,
2013-01-08 05:22:00,31.4,24.0,30.15,North,-999,-999.0,-999.0,71,-99.99,,,-99.99,WSDL version 423,2013-01-08 11:22:00,
2013-01-08 05:27:00,31.4,23.9,30.15,North,-999,-999.0,-999.0,71,-99.99,,,-99.99,WSDL version 423,2013-01-08 11:27:00,
2013-01-08 05:28:00,31.3,23.9,30.15,SE,135,0.0,0.0,71,-99.99,,,-99.99,WSDL version 423,2013-01-08 11:28:00,
2013-01-08 05:32:00,31.1,23.7,30.15,North,0,0.0,0.0,71,-99.99,,,-99.99,WSDL version 423,2013-01-08 11:32:00,
2013-01-08 05:33:00,31.0,23.6,30.15,North,-999,-999.0,-999.0,71,-99.99,,,-99.99,WSDL version 423,2013-01-08 11:33:00,
2013-01-08 05:35:00,31.0,23.5,30.15,North,-999,-999.0,-999.0,71,-99.99,,,-99.99,WSDL version 423,2013-01-08 11:35:00,
2013-01-08 05:39:00,30.9,23.5,30.15,North,-999,-999.0,-999.0,72,-99.99,,,-99.99,WSDL version 423,2013-01-08 11:39:00,
2013-01-08 05:40:00,30.9,23.6,30.15,North,-999,-999.0,-999.0,72,-99.99,,,-99.99,WSDL version 423,2013-01-08 11:40:00,
2013-01-08 05:43:00,30.9,23.7,30.18,North,-999,-999.0,-999.0,72,-99.99,,,-99.99,WSDL version 423,2013-01-08 11:43:00,
2013-01-08 05:44:00,30.9,23.7,30.18,North,-999,-999.0,-999.0,72,-99.99,,,-99.99,WSDL version 423,2013-01-08 11:44:00,
2013-01-08 05:45:00,30.9,23.7,30.18,North,-999,-999.0,-999.0,72,-99.99,,,-99.99,WSDL version 423,2013-01-08 11:45:00,
2013-01-08 05:49:00,31.1,23.8,30.18,North,-999,-999.0,-999.0,72,-99.99,,,-99.99,WSDL version 423,2013-01-08 11:49:00,
2013-01-08 05:50:00,31.1,23.9,30.18,North,-999,-999.0,-999.0,72,-99.99,,,-99.99,WSDL version 423,2013-01-08 11:50:00,
2013-01-08 05:52:00,31.1,23.9,30.18,North,-999,-999.0,-999.0,72,-99.99,,,-99.99,WSDL version 423,2013-01-08 11:52:00,
2013-01-08 05:54:00,31.1,23.9,30.18,North,-999,-999.0,-999.0,72,-99.99,,,-99.99,WSDL version 423,2013-01-08 11:54:00,
2013-01-08 05:55:00,31.1,23.9,30.18,North,-999,-999.0,-999.0,72,-99.99,,,-99.99,WSDL version 423,2013-01-08 11:55:00,
2013-01-08 05:58:00,31.0,23.8,30.18,North,-999,-999.0,-999.0,72,-99.99,,,-99.99,WSDL version 423,2013-01-08 11:58:00,
2013-01-08 05:59:00,30.9,23.8,30.18,North,-999,-999.0,-999.0,72,-99.99,,,-99.99,WSDL version 423,2013-01-08 11:59:00,
2013-01-08 06:03:00,30.8,23.7,30.18,North,-999,-999.0,-999.0,72,-99.99,,,-99.99,WSDL version 423,2013-01-08 12:03:00,
2013-01-08 06:04:00,30.8,23.7,30.18,North,-999,-999.0,-999.0,72,-99.99,,,-99.99,WSDL version 423,2013-01-08 12:04:00,
2013-01-08 06:05:00,30.8,23.7,30.18,North,-999,-999.0,-999.0,72,-99.99,,,-99.99,WSDL version 423,2013-01-08 12:05:00,
2013-01-08 06:07:00,30.7,23.8,30.18,North,-999,-999.0,-999.0,72,-99.99,,,-99.99,WSDL version 423,2013-01-08 12:07:00,
2013-01-08 06:10:00,30.7,23.8,30.18,North,-999,-999.0,-999.0,72,-99.99,,,-99.99,WSDL version 423,2013-01-08 12:10:00,
2013-01-08 06:12:00,30.7,23.8,30.18,North,-999,-999.0,-999.0,72,-99.99,,,-99.99,WSDL version 423,2013-01-08 12:12:00,
2013-01-08 06:14:00,30.6,23.7,30.18,North,-999,-999.0,-999.0,72,-99.99,,,-99.99,WSDL version 423,2013-01-08 12:14:00,
2013-01-08 06:15:00,30.5,23.6,30.18,North,-999,-999.0,-999.0,72,-99.99,,,-99.99,WSDL version 423,2013-01-08 12:15:00,
2013-01-08 06:17:00,30.5,23.6,30.18,North,-999,-999.0,-999.0,72,-99.99,,,-99.99,WSDL version 423,2013-01-08 12:17:00,
2013-01-08 06:19:00,30.5,23.6,30.18,North,-999,-999.0,-999.0,72,-99.99,,,-99.99,WSDL version 423,2013-01-08 12:19:00,
2013-01-08 06:20:00,30.5,23.7,30.18,North,-999,-999.0,-999.0,73,-99.99,,,-99.99,WSDL version 423,2013-01-08 12:20:00,
2013-01-08 06:24:00,30.6,24.0,30.18,North,-999,-999.0,-999.0,73,-99.99,,,-99.99,WSDL version 423,2013-01-08 12:24:00,
2013-01-08 06:25:00,30.6,24.0,30.18,North,-999,-999.0,-999.0,73,-99.99,,,-99.99,WSDL version 423,2013-01-08 12:25:00,
2013-01-08 06:26:00,30.7,24.0,30.18,North,-999,-999.0,-999.0,73,-99.99,,,-99.99,WSDL version 423,2013-01-08 12:26:00,
2013-01-08 06:29:00,30.7,24.1,30.18,North,-999,-999.0,-999.0,73,-99.99,,,-99.99,WSDL version 423,2013-01-08 12:29:00,
2013-01-08 06:30:00,30.7,24.1,30.18,North,-999,-999.0,-999.0,73,-99.99,,,-99.99,WSDL version 423,2013-01-08 12:30:00,
2013-01-08 06:31:00,30.7,24.1,30.18,North,-999,-999.0,-999.0,73,-99.99,,,-99.99,WSDL version 423,2013-01-08 12:31:00,
2013-01-08 06:35:00,30.7,24.1,30.18,North,-999,-999.0,-999.0,73,-99.99,,,-99.99,WSDL version 423,2013-01-08 12:35:00,
2013-01-08 06:36:00,30.7,24.1,30.18,North,-999,-999.0,-999.0,73,-99.99,,,-99.99,WSDL version 423,2013-01-08 12:36:00,
2013-01-08 06:37:00,30.7,24.0,30.18,North,-999,-999.0,-999.0,73,-99.99,,,-99.99,WSDL version 423,2013-01-08 12:37:00,
2013-01-08 06:38:00,30.6,24.0,30.18,North,-999,-999.0,-999.0,73,-99.99,,,-99.99,WSDL version 423,2013-01-08 12:38:00,
2013-01-08 06:41:00,30.5,23.9,30.18,North,-999,-999.0,-999.0,73,-99.99,,,-99.99,WSDL version 423,2013-01-08 12:41:00,
2013-01-08 06:43:00,30.5,23.9,30.18,North,-999,-999.0,-999.0,73,-99.99,,,-99.99,WSDL version 423,2013-01-08 12:43:00,
2013-01-08 06:45:00,30.6,24.0,30.18,North,-999,-999.0,-999.0,73,-99.99,,,-99.99,WSDL version 423,2013-01-08 12:45:00,
2013-01-08 06:48:00,30.7,24.1,30.18,North,-999,-999.0,-999.0,73,-99.99,,,-99.99,WSDL version 423,2013-01-08 12:48:00,
2013-01-08 06:50:00,30.7,24.1,30.18,North,-999,-999.0,-999.0,73,-99.99,,,-99.99,WSDL version 423,2013-01-08 12:50:00,
2013-01-08 06:53:00,30.7,24.1,30.18,North,-999,-999.0,-999.0,73,-99.99,,,-99.99,WSDL version 423,2013-01-08 12:53:00,
2013-01-08 06:54:00,30.8,24.1,30.18,North,-999,-999.0,-999.0,73,-99.99,,,-99.99,WSDL version 423,2013-01-08 12:54:00,
2013-01-08 06:56:00,30.8,24.2,30.18,North,-999,-999.0,-999.0,73,-99.99,,,-99.99,WSDL version 423,2013-01-08 12:56:00,
2013-01-08 06:58:00,30.9,24.3,30.18,North,-999,-999.0,-999.0,73,-99.99,,,-99.99,WSDL version 423,2013-01-08 12:58:00,
2013-01-08 06:59:00,30.9,24.3,30.18,North,-999,-999.0,-999.0,73,-99.99,,,-99.99,WSDL version 423,2013-01-08 12:59:00,
2013-01-08 07:00:00,30.9,24.3,30.18,North,-999,-999.0,-999.0,73,-99.99,,,-99.99,WSDL version 423,2013-01-08 13:00:00,
2013-01-08 07:03:00,30.9,24.3,30.18,North,-999,-999.0,-999.0,73,-99.99,,,-99.99,WSDL version 423,2013-01-08 13:03:00,
2013-01-08 07:04:00,30.9,24.3,30.18,North,-999,-999.0,-999.0,73,-99.99,,,-99.99,WSDL version 423,2013-01-08 13:04:00,
2013-01-08 07:07:00,31.0,24.4,30.18,North,-999,-999.0,-999.0,73,-99.99,,,-99.99,WSDL version 423,2013-01-08 13:07:00,
2013-01-08 07:11:00,31.1,24.4,30.18,North,-999,-999.0,-999.0,73,-99.99,,,-99.99,WSDL version 423,2013-01-08 13:11:00,
2013-01-08 07:14:00,31.1,24.4,30.21,North,-999,-999.0,-999.0,73,-99.99,,,-99.99,WSDL version 423,2013-01-08 13:14:00,
2013-01-08 07:15:00,31.1,24.4,30.21,North,-999,-999.0,-999.0,73,-99.99,,,-99.99,WSDL version 423,2013-01-08 13:15:00,
2013-01-08 07:18:00,31.1,24.4,30.21,North,-999,-999.0,-999.0,73,-99.99,,,-99.99,WSDL version 423,2013-01-08 13:18:00,
2013-01-08 07:20:00,31.1,24.4,30.21,North,-999,-999.0,-999.0,73,-99.99,,,-99.99,WSDL version 423,2013-01-08 13:20:00,
2013-01-08 07:23:00,31.1,24.4,30.21,North,-999,-999.0,-999.0,73,-99.99,,,-99.99,WSDL version 423,2013-01-08 13:23:00,
2013-01-08 07:25:00,31.1,24.5,30.21,North,-999,-999.0,-999.0,73,-99.99,,,-99.99,WSDL version 423,2013-01-08 13:25:00,
2013-01-08 07:28:00,31.2,24.5,30.18,North,-999,-999.0,-999.0,73,-99.99,,,-99.99,WSDL version 423,2013-01-08 13:28:00,
2013-01-08 07:29:00,31.3,24.6,30.18,North,-999,-999.0,-999.0,73,-99.99,,,-99.99,WSDL version 423,2013-01-08 13:29:00,
2013-01-08 07:31:00,31.4,24.8,30.18,North,-999,-999.0,-999.0,74,-99.99,,,-99.99,WSDL version 423,2013-01-08 13:31:00,
2013-01-08 07:32:00,31.5,25.0,30.18,North,-999,-999.0,-999.0,74,-99.99,,,-99.99,WSDL version 423,2013-01-08 13:32:00,
2013-01-08 07:35:00,31.7,25.2,30.18,North,-999,-999.0,-999.0,74,-99.99,,,-99.99,WSDL version 423,2013-01-08 13:35:00,
2013-01-08 07:36:00,31.7,25.3,30.18,North,-999,-999.0,-999.0,74,-99.99,,,-99.99,WSDL version 423,2013-01-08 13:36:00,
2013-01-08 07:40:00,32.0,25.4,30.18,North,-999,-999.0,-999.0,74,-99.99,,,-99.99,WSDL version 423,2013-01-08 13:40:00,
2013-01-08 07:43:00,32.2,25.1,30.21,North,-999,-999.0,-999.0,74,-99.99,,,-99.99,WSDL version 423,2013-01-08 13:43:00,
2013-01-08 07:49:00,32.7,25.5,30.21,North,-999,-999.0,-999.0,74,-99.99,,,-99.99,WSDL version 423,2013-01-08 13:49:00,
2013-01-08 07:52:00,32.9,25.6,30.21,North,-999,-999.0,-999.0,74,-99.99,,,-99.99,WSDL version 423,2013-01-08 13:52:00,
2013-01-08 07:53:00,33.0,25.7,30.21,North,-999,-999.0,-999.0,74,-99.99,,,-99.99,WSDL version 423,2013-01-08 13:53:00,
2013-01-08 07:54:00,33.0,25.7,30.21,North,-999,-999.0,-999.0,74,-99.99,,,-99.99,WSDL version 423,2013-01-08 13:54:00,
2013-01-08 07:55:00,33.1,25.8,30.21,North,-999,-999.0,-999.0,74,-99.99,,,-99.99,WSDL version 423,2013-01-08 13:55:00,
2013-01-08 08:00:00,33.5,26.2,30.18,North,-999,-999.0,-999.0,74,-99.99,,,-99.99,WSDL version 423,2013-01-08 14:00:00,
2013-01-08 08:02:00,33.6,26.3,30.18,North,-999,-999.0,-999.0,74,-99.99,,,-99.99,WSDL version 423,2013-01-08 14:02:00,
2013-01-08 08:04:00,33.6,26.3,30.18,North,-999,-999.0,-999.0,74,-99.99,,,-99.99,WSDL version 423,2013-01-08 14:04:00,
2013-01-08 08:05:00,33.7,26.4,30.18,North,-999,-999.0,-999.0,74,-99.99,,,-99.99,WSDL version 423,2013-01-08 14:05:00,
2013-01-08 08:07:00,33.8,26.4,30.18,North,-999,-999.0,-999.0,74,-99.99,,,-99.99,WSDL version 423,2013-01-08 14:07:00,
2013-01-08 08:12:00,34.2,26.9,30.21,North,-999,-999.0,-999.0,74,-99.99,,,-99.99,WSDL version 423,2013-01-08 14:12:00,
2013-01-08 08:13:00,34.3,27.0,30.21,North,-999,-999.0,-999.0,74,-99.99,,,-99.99,WSDL version 423,2013-01-08 14:13:00,
2013-01-08 08:16:00,34.5,27.2,30.21,North,-999,-999.0,-999.0,74,-99.99,,,-99.99,WSDL version 423,2013-01-08 14:16:00,
2013-01-08 08:18:00,34.7,27.3,30.21,North,-999,-999.0,-999.0,74,-99.99,,,-99.99,WSDL version 423,2013-01-08 14:18:00,
2013-01-08 08:23:00,35.0,27.7,30.21,North,-999,-999.0,-999.0,74,-99.99,,,-99.99,WSDL version 423,2013-01-08 14:23:00,
2013-01-08 08:27:00,35.3,27.9,30.21,SSW,195,0.0,1.3,74,-99.99,,,-99.99,WSDL version 423,2013-01-08 14:27:00,
2013-01-08 08:29:00,35.4,28.0,30.21,SSW,203,0.0,1.3,74,-99.99,,,-99.99,WSDL version 423,2013-01-08 14:29:00,
2013-01-08 08:33:00,35.7,28.1,30.21,North,-999,-999.0,-999.0,73,-99.99,,,-99.99,WSDL version 423,2013-01-08 14:33:00,
2013-01-08 08:35:00,35.8,28.1,30.21,SW,225,0.0,1.3,73,-99.99,,,-99.99,WSDL version 423,2013-01-08 14:35:00,
2013-01-08 08:37:00,35.9,28.2,30.21,North,0,0.0,0.9,73,-99.99,,,-99.99,WSDL version 423,2013-01-08 14:37:00,
2013-01-08 08:39:00,36.0,28.4,30.21,SW,225,0.0,1.1,73,-99.99,,,-99.99,WSDL version 423,2013-01-08 14:39:00,
2013-01-08 08:41:00,36.1,28.4,30.21,SSW,203,0.0,1.1,72,-99.99,,,-99.99,WSDL version 423,2013-01-08 14:41:00,
2013-01-08 08:42:00,36.2,28.4,30.21,SSW,203,0.0,1.1,72,-99.99,,,-99.99,WSDL version 423,2013-01-08 14:42:00,
2013-01-08 08:44:00,36.2,28.4,30.21,North,0,0.0,1.1,72,-99.99,,,-99.99,WSDL version 423,2013-01-08 14:44:00,
2013-01-08 08:47:00,36.4,28.4,30.21,North,0,0.0,2.2,72,-99.99,,,-99.99,WSDL version 423,2013-01-08 14:47:00,
2013-01-08 08:52:00,37.1,29.2,30.21,WSW,248,0.0,2.2,73,-99.99,,,-99.99,WSDL version 423,2013-01-08 14:52:00,
2013-01-08 08:53:00,37.4,29.6,30.21,WSW,248,0.0,2.2,73,-99.99,,,-99.99,WSDL version 423,2013-01-08 14:53:00,
2013-01-08 08:56:00,38.1,30.4,30.21,SW,219,1.1,2.2,73,-99.99,,,-99.99,WSDL version 423,2013-01-08 14:56:00,
2013-01-08 08:57:00,38.4,30.6,30.24,SW,225,1.6,2.2,73,-99.99,,,-99.99,WSDL version 423,2013-01-08 14:57:00,
2013-01-08 08:58:00,38.6,30.9,30.24,South,191,1.5,2.2,73,-99.99,,,-99.99,WSDL version 423,2013-01-08 14:58:00,
2013-01-08 09:03:00,40.3,32.0,30.24,North,0,0.0,2.9,72,-99.99,,,-99.99,WSDL version 423,2013-01-08 15:03:00,
2013-01-08 09:04:00,40.6,32.2,30.24,North,0,0.0,2.9,72,-99.99,,,-99.99,WSDL version 423,2013-01-08 15:04:00,
2013-01-08 09:06:00,41.2,32.5,30.24,North,-999,-999.0,-999.0,70,-99.99,,,-99.99,WSDL version 423,2013-01-08 15:06:00,
2013-01-08 09:11:00,43.1,32.9,30.24,SSW,210,1.3,2.0,66,-99.99,,,-99.99,WSDL version 423,2013-01-08 15:11:00,
2013-01-08 09:16:00,44.5,33.1,30.21,SSW,203,1.6,2.0,62,-99.99,,,-99.99,WSDL version 423,2013-01-08 15:16:00,
2013-01-08 09:18:00,45.2,32.9,30.21,North,0,0.0,2.0,61,-99.99,,,-99.99,WSDL version 423,2013-01-08 15:18:00,
2013-01-08 09:21:00,45.8,32.8,30.21,SSE,158,1.6,1.6,59,-99.99,,,-99.99,WSDL version 423,2013-01-08 15:21:00,
2013-01-08 09:22:00,46.0,32.8,30.21,North,0,0.0,1.6,58,-99.99,,,-99.99,WSDL version 423,2013-01-08 15:22:00,
2013-01-08 09:24:00,46.4,32.5,30.21,North,0,0.0,1.6,56,-99.99,,,-99.99,WSDL version 423,2013-01-08 15:24:00,
2013-01-08 09:27:00,46.8,31.8,30.21,North,0,0.0,3.1,54,-99.99,,,-99.99,WSDL version 423,2013-01-08 15:27:00,
2013-01-08 09:28:00,46.9,31.6,30.21,North,0,0.0,3.1,54,-99.99,,,-99.99,WSDL version 423,2013-01-08 15:28:00,
2013-01-08 09:33:00,47.9,32.2,30.21,North,-999,-999.0,-999.0,54,-99.99,,,-99.99,WSDL version 423,2013-01-08 15:33:00,
2013-01-08 09:34:00,48.3,32.4,30.21,North,-999,-999.0,-999.0,53,-99.99,,,-99.99,WSDL version 423,2013-01-08 15:34:00,
2013-01-08 09:38:00,49.2,32.6,30.21,SW,214,3.0,4.0,52,-99.99,,,-99.99,WSDL version 423,2013-01-08 15:38:00,
2013-01-08 09:39:00,49.4,32.5,30.21,SSW,203,3.4,4.0,52,-99.99,,,-99.99,WSDL version 423,2013-01-08 15:39:00,
2013-01-08 09:41:00,49.7,32.2,30.21,North,0,0.0,4.0,50,-99.99,,,-99.99,WSDL version 423,2013-01-08 15:41:00,
2013-01-08 09:44:00,49.9,31.5,30.24,North,-999,-999.0,-999.0,47,-99.99,,,-99.99,WSDL version 423,2013-01-08 15:44:00,
2013-01-08 09:46:00,50.0,30.9,30.24,North,-999,-999.0,-999.0,47,-99.99,,,-99.99,WSDL version 423,2013-01-08 15:46:00,
2013-01-08 09:47:00,50.1,30.7,30.24,North,-999,-999.0,-999.0,47,-99.99,,,-99.99,WSDL version 423,2013-01-08 15:47:00,
2013-01-08 09:53:00,50.9,31.2,30.24,North,-999,-999.0,-999.0,46,-99.99,,,-99.99,WSDL version 423,2013-01-08 15:53:00,
2013-01-08 09:57:00,51.4,30.8,30.21,North,0,0.0,3.4,44,-99.99,,,-99.99,WSDL version 423,2013-01-08 15:57:00,
2013-01-08 09:59:00,51.6,30.9,30.21,North,-999,-999.0,-999.0,45,-99.99,,,-99.99,WSDL version 423,2013-01-08 15:59:00,
2013-01-08 10:01:00,51.9,31.1,30.21,North,-999,-999.0,-999.0,45,-99.99,,,-99.99,WSDL version 423,2013-01-08 16:01:00,
2013-01-08 10:02:00,52.0,31.2,30.21,North,-999,-999.0,-999.0,44,-99.99,,,-99.99,WSDL version 423,2013-01-08 16:02:00,
2013-01-08 10:04:00,52.4,31.3,30.21,North,-999,-999.0,-999.0,44,-99.99,,,-99.99,WSDL version 423,2013-01-08 16:04:00,
2013-01-08 10:06:00,52.7,31.4,30.21,North,-999,-999.0,-999.0,43,-99.99,,,-99.99,WSDL version 423,2013-01-08 16:06:00,
2013-01-08 10:11:00,53.2,31.4,30.21,North,-999,-999.0,-999.0,43,-99.99,,,-99.99,WSDL version 423,2013-01-08 16:11:00,
2013-01-08 10:12:00,53.3,31.4,30.21,North,-999,-999.0,-999.0,43,-99.99,,,-99.99,WSDL version 423,2013-01-08 16:12:00,
2013-01-08 10:13:00,53.3,31.5,30.21,North,-999,-999.0,-999.0,43,-99.99,,,-99.99,WSDL version 423,2013-01-08 16:13:00,
2013-01-08 10:18:00,53.7,31.4,30.21,North,-999,-999.0,-999.0,42,-99.99,,,-99.99,WSDL version 423,2013-01-08 16:18:00,
2013-01-08 10:22:00,54.3,31.8,30.21,North,-999,-999.0,-999.0,42,-99.99,,,-99.99,WSDL version 423,2013-01-08 16:22:00,
2013-01-08 10:23:00,54.5,31.8,30.21,North,-999,-999.0,-999.0,41,-99.99,,,-99.99,WSDL version 423,2013-01-08 16:23:00,
2013-01-08 10:24:00,54.6,31.8,30.21,North,-999,-999.0,-999.0,41,-99.99,,,-99.99,WSDL version 423,2013-01-08 16:24:00,
2013-01-08 10:25:00,54.8,31.9,30.21,North,-999,-999.0,-999.0,41,-99.99,,,-99.99,WSDL version 423,2013-01-08 16:25:00,
2013-01-08 10:29:00,55.3,32.3,30.21,North,-999,-999.0,-999.0,41,-99.99,,,-99.99,WSDL version 423,2013-01-08 16:29:00,
2013-01-08 10:30:00,55.5,32.5,30.21,North,-999,-999.0,-999.0,41,-99.99,,,-99.99,WSDL version 423,2013-01-08 16:30:00,
2013-01-08 10:33:00,56.2,33.2,30.21,North,-999,-999.0,-999.0,41,-99.99,,,-99.99,WSDL version 423,2013-01-08 16:33:00,
2013-01-08 10:35:00,56.7,33.2,30.21,North,-999,-999.0,-999.0,41,-99.99,,,-99.99,WSDL version 423,2013-01-08 16:35:00,
2013-01-08 10:37:00,56.9,33.1,30.21,North,-999,-999.0,-999.0,41,-99.99,,,-99.99,WSDL version 423,2013-01-08 16:37:00,
2013-01-08 10:42:00,57.3,32.6,30.21,North,-999,-999.0,-999.0,38,-99.99,,,-99.99,WSDL version 423,2013-01-08 16:42:00,
2013-01-08 10:43:00,57.4,32.5,30.21,North,-999,-999.0,-999.0,38,-99.99,,,-99.99,WSDL version 423,2013-01-08 16:43:00,
2013-01-08 10:47:00,57.3,31.2,30.21,North,-999,-999.0,-999.0,36,-99.99,,,-99.99,WSDL version 423,2013-01-08 16:47:00,
2013-01-08 10:48:00,57.2,31.0,30.21,North,-999,-999.0,-999.0,37,-99.99,,,-99.99,WSDL version 423,2013-01-08 16:48:00,
2013-01-08 10:52:00,57.5,31.3,30.21,North,-999,-999.0,-999.0,37,-99.99,,,-99.99,WSDL version 423,2013-01-08 16:52:00,
2013-01-08 10:53:00,57.6,31.3,30.21,North,-999,-999.0,-999.0,36,-99.99,,,-99.99,WSDL version 423,2013-01-08 16:53:00,
2013-01-08 10:54:00,57.7,31.3,30.21,North,-999,-999.0,-999.0,36,-99.99,,,-99.99,WSDL version 423,2013-01-08 16:54:00,
2013-01-08 10:58:00,57.8,30.8,30.18,North,-999,-999.0,-999.0,35,-99.99,,,-99.99,WSDL version 423,2013-01-08 16:58:00,
2013-01-08 10:59:00,57.8,30.7,30.18,North,-999,-999.0,-999.0,35,-99.99,,,-99.99,WSDL version 423,2013-01-08 16:59:00,
2013-01-08 11:01:00,58.0,31.0,30.18,North,-999,-999.0,-999.0,36,-99.99,,,-99.99,WSDL version 423,2013-01-08 17:01:00,
2013-01-08 11:03:00,58.3,31.2,30.18,North,-999,-999.0,-999.0,35,-99.99,,,-99.99,WSDL version 423,2013-01-08 17:03:00,
2013-01-08 11:04:00,58.4,31.4,30.18,North,-999,-999.0,-999.0,36,-99.99,,,-99.99,WSDL version 423,2013-01-08 17:04:00,
2013-01-08 11:06:00,58.4,31.1,30.18,North,-999,-999.0,-999.0,35,-99.99,,,-99.99,WSDL version 423,2013-01-08 17:06:00,
2013-01-08 11:09:00,58.5,31.0,30.18,North,-999,-999.0,-999.0,35,-99.99,,,-99.99,WSDL version 423,2013-01-08 17:09:00,
2013-01-08 11:10:00,58.5,31.0,30.18,North,-999,-999.0,-999.0,35,-99.99,,,-99.99,WSDL version 423,2013-01-08 17:10:00,
2013-01-08 11:14:00,58.6,31.1,30.18,North,-999,-999.0,-999.0,35,-99.99,,,-99.99,WSDL version 423,2013-01-08 17:14:00,
2013-01-08 11:15:00,58.6,31.0,30.18,North,-999,-999.0,-999.0,35,-99.99,,,-99.99,WSDL version 423,2013-01-08 17:15:00,
2013-01-08 11:20:00,58.4,30.9,30.18,North,-999,-999.0,-999.0,35,-99.99,,,-99.99,WSDL version 423,2013-01-08 17:20:00,
2013-01-08 11:21:00,58.5,31.0,30.18,North,-999,-999.0,-999.0,35,-99.99,,,-99.99,WSDL version 423,2013-01-08 17:21:00,
2013-01-08 11:26:00,58.9,31.3,30.18,North,-999,-999.0,-999.0,35,-99.99,,,-99.99,WSDL version 423,2013-01-08 17:26:00,
2013-01-08 11:27:00,58.8,31.1,30.18,North,-999,-999.0,-999.0,35,-99.99,,,-99.99,WSDL version 423,2013-01-08 17:27:00,
2013-01-08 11:31:00,58.7,30.9,30.18,North,-999,-999.0,-999.0,35,-99.99,,,-99.99,WSDL version 423,2013-01-08 17:31:00,
2013-01-08 11:32:00,58.8,31.1,30.18,North,-999,-999.0,-999.0,35,-99.99,,,-99.99,WSDL version 423,2013-01-08 17:32:00,
2013-01-08 11:37:00,59.3,31.7,30.18,North,-999,-999.0,-999.0,35,-99.99,,,-99.99,WSDL version 423,2013-01-08 17:37:00,
2013-01-08 11:39:00,59.4,31.5,30.18,North,-999,-999.0,-999.0,34,-99.99,,,-99.99,WSDL version 423,2013-01-08 17:39:00,
2013-01-08 11:42:00,59.7,31.3,30.18,North,-999,-999.0,-999.0,34,-99.99,,,-99.99,WSDL version 423,2013-01-08 17:42:00,
2013-01-08 11:47:00,60.2,31.7,30.18,North,-999,-999.0,-999.0,34,-99.99,,,-99.99,WSDL version 423,2013-01-08 17:47:00,
2013-01-08 11:48:00,60.3,31.9,30.18,North,-999,-999.0,-999.0,34,-99.99,,,-99.99,WSDL version 423,2013-01-08 17:48:00,
2013-01-08 11:52:00,60.8,32.2,30.18,North,-999,-999.0,-999.0,34,-99.99,,,-99.99,WSDL version 423,2013-01-08 17:52:00,
2013-01-08 11:53:00,60.9,32.1,30.18,North,-999,-999.0,-999.0,33,-99.99,,,-99.99,WSDL version 423,2013-01-08 17:53:00,
2013-01-08 11:54:00,60.9,32.0,30.18,North,-999,-999.0,-999.0,33,-99.99,,,-99.99,WSDL version 423,2013-01-08 17:54:00,
2013-01-08 11:57:00,61.1,31.8,30.15,North,-999,-999.0,-999.0,33,-99.99,,,-99.99,WSDL version 423,2013-01-08 17:57:00,
2013-01-08 12:00:00,61.2,31.9,30.15,North,-999,-999.0,-999.0,33,-99.99,,,-99.99,WSDL version 423,2013-01-08 18:00:00,
2013-01-08 12:03:00,61.8,32.4,30.15,North,-999,-999.0,-999.0,33,-99.99,,,-99.99,WSDL version 423,2013-01-08 18:03:00,
2013-01-08 12:05:00,62.1,32.7,30.15,North,-999,-999.0,-999.0,33,-99.99,,,-99.99,WSDL version 423,2013-01-08 18:05:00,
2013-01-08 12:09:00,62.4,32.8,30.15,North,-999,-999.0,-999.0,32,-99.99,,,-99.99,WSDL version 423,2013-01-08 18:09:00,
2013-01-08 12:12:00,62.6,32.4,30.15,North,-999,-999.0,-999.0,32,-99.99,,,-99.99,WSDL version 423,2013-01-08 18:12:00,
2013-01-08 12:15:00,62.8,32.5,30.15,North,-999,-999.0,-999.0,32,-99.99,,,-99.99,WSDL version 423,2013-01-08 18:15:00,
2013-01-08 12:16:00,62.8,32.5,30.15,North,-999,-999.0,-999.0,32,-99.99,,,-99.99,WSDL version 423,2013-01-08 18:16:00,
2013-01-08 12:18:00,62.9,32.6,30.15,North,-999,-999.0,-999.0,32,-99.99,,,-99.99,WSDL version 423,2013-01-08 18:18:00,
2013-01-08 12:23:00,62.9,32.6,30.15,North,-999,-999.0,-999.0,32,-99.99,,,-99.99,WSDL version 423,2013-01-08 18:23:00,
2013-01-08 12:24:00,62.9,32.6,30.15,North,-999,-999.0,-999.0,32,-99.99,,,-99.99,WSDL version 423,2013-01-08 18:24:00,
2013-01-08 12:25:00,62.8,32.6,30.15,North,-999,-999.0,-999.0,32,-99.99,,,-99.99,WSDL version 423,2013-01-08 18:25:00,
2013-01-08 12:29:00,62.8,32.5,30.18,SW,236,4.8,7.2,32,-99.99,,,-99.99,WSDL version 423,2013-01-08 18:29:00,
2013-01-08 12:30:00,62.8,32.5,30.18,North,0,0.0,7.2,32,-99.99,,,-99.99,WSDL version 423,2013-01-08 18:30:00,
2013-01-08 12:31:00,62.8,32.5,30.18,North,0,0.0,7.2,32,-99.99,,,-99.99,WSDL version 423,2013-01-08 18:31:00,
2013-01-08 12:35:00,63.1,32.8,30.18,North,-999,-999.0,-999.0,32,-99.99,,,-99.99,WSDL version 423,2013-01-08 18:35:00,
2013-01-08 12:36:00,63.2,32.9,30.18,North,-999,-999.0,-999.0,32,-99.99,,,-99.99,WSDL version 423,2013-01-08 18:36:00,
2013-01-08 12:41:00,63.9,33.5,30.18,North,-999,-999.0,-999.0,32,-99.99,,,-99.99,WSDL version 423,2013-01-08 18:41:00,
2013-01-08 12:42:00,64.0,33.6,30.15,North,-999,-999.0,-999.0,32,-99.99,,,-99.99,WSDL version 423,2013-01-08 18:42:00,
2013-01-08 12:47:00,63.5,32.3,30.15,North,-999,-999.0,-999.0,31,-99.99,,,-99.99,WSDL version 423,2013-01-08 18:47:00,
2013-01-08 12:48:00,63.2,32.1,30.15,North,-999,-999.0,-999.0,31,-99.99,,,-99.99,WSDL version 423,2013-01-08 18:48:00,
2013-01-08 12:53:00,63.2,32.1,30.15,North,-999,-999.0,-999.0,31,-99.99,,,-99.99,WSDL version 423,2013-01-08 18:53:00,
2013-01-08 12:55:00,63.3,32.1,30.15,North,-999,-999.0,-999.0,31,-99.99,,,-99.99,WSDL version 423,2013-01-08 18:55:00,
2013-01-08 12:58:00,63.2,32.1,30.15,North,-999,-999.0,-999.0,31,-99.99,,,-99.99,WSDL version 423,2013-01-08 18:58:00,
2013-01-08 13:00:00,63.1,32.0,30.15,North,349,2.7,5.6,31,-99.99,,,-99.99,WSDL version 423,2013-01-08 19:00:00,
2013-01-08 13:02:00,63.1,32.0,30.15,North,0,0.0,5.6,31,-99.99,,,-99.99,WSDL version 423,2013-01-08 19:02:00,
2013-01-08 13:03:00,63.0,31.9,30.15,North,0,0.0,5.6,31,-99.99,,,-99.99,WSDL version 423,2013-01-08 19:03:00,
2013-01-08 13:06:00,62.6,31.6,30.15,North,-999,-999.0,-999.0,31,-99.99,,,-99.99,WSDL version 423,2013-01-08 19:06:00,
2013-01-08 13:08:00,62.4,31.4,30.15,North,-999,-999.0,-999.0,31,-99.99,,,-99.99,WSDL version 423,2013-01-08 19:08:00,
2013-01-08 13:09:00,62.4,31.4,30.15,North,-999,-999.0,-999.0,31,-99.99,,,-99.99,WSDL version 423,2013-01-08 19:09:00,
2013-01-08 13:11:00,62.3,31.3,30.15,North,-999,-999.0,-999.0,31,-99.99,,,-99.99,WSDL version 423,2013-01-08 19:11:00,
2013-01-08 13:16:00,62.2,31.2,30.12,North,-999,-999.0,-999.0,31,-99.99,,,-99.99,WSDL version 423,2013-01-08 19:16:00,
2013-01-08 13:17:00,62.2,31.2,30.12,North,-999,-999.0,-999.0,31,-99.99,,,-99.99,WSDL version 423,2013-01-08 19:17:00,
2013-01-08 13:23:00,62.6,31.6,30.12,North,-999,-999.0,-999.0,31,-99.99,,,-99.99,WSDL version 423,2013-01-08 19:23:00,
2013-01-08 13:24:00,62.6,31.6,30.12,North,-999,-999.0,-999.0,31,-99.99,,,-99.99,WSDL version 423,2013-01-08 19:24:00,
2013-01-08 13:25:00,62.6,31.6,30.12,SE,135,1.6,1.6,31,-99.99,,,-99.99,WSDL version 423,2013-01-08 19:25:00,
2013-01-08 13:27:00,62.6,31.6,30.12,North,0,0.0,1.1,31,-99.99,,,-99.99,WSDL version 423,2013-01-08 19:27:00,
2013-01-08 13:29:00,62.5,31.4,30.12,North,0,0.0,1.1,31,-99.99,,,-99.99,WSDL version 423,2013-01-08 19:29:00,
2013-01-08 13:32:00,62.4,31.4,30.12,North,-999,-999.0,-999.0,31,-99.99,,,-99.99,WSDL version 423,2013-01-08 19:32:00,
2013-01-08 13:34:00,62.5,31.5,30.12,North,-999,-999.0,-999.0,31,-99.99,,,-99.99,WSDL version 423,2013-01-08 19:34:00,
2013-01-08 13:38:00,62.8,31.7,30.12,North,-999,-999.0,-999.0,31,-99.99,,,-99.99,WSDL version 423,2013-01-08 19:38:00,
2013-01-08 13:39:00,62.8,31.7,30.12,North,-999,-999.0,-999.0,31,-99.99,,,-99.99,WSDL version 423,2013-01-08 19:39:00,
2013-01-08 13:42:00,62.6,31.6,30.12,North,-999,-999.0,-999.0,31,-99.99,,,-99.99,WSDL version 423,2013-01-08 19:42:00,
2013-01-08 13:44:00,62.5,31.5,30.12,North,-999,-999.0,-999.0,31,-99.99,,,-99.99,WSDL version 423,2013-01-08 19:44:00,
2013-01-08 13:45:00,62.5,31.5,30.12,North,-999,-999.0,-999.0,31,-99.99,,,-99.99,WSDL version 423,2013-01-08 19:45:00,
2013-01-08 13:49:00,62.5,31.5,30.12,North,-999,-999.0,-999.0,31,-99.99,,,-99.99,WSDL version 423,2013-01-08 19:49:00,
2013-01-08 13:51:00,62.6,31.6,30.12,North,-999,-999.0,-999.0,31,-99.99,,,-99.99,WSDL version 423,2013-01-08 19:51:00,
2013-01-08 13:54:00,62.6,31.6,30.12,North,-999,-999.0,-999.0,31,-99.99,,,-99.99,WSDL version 423,2013-01-08 19:54:00,
2013-01-08 13:55:00,62.6,31.6,30.12,North,-999,-999.0,-999.0,31,-99.99,,,-99.99,WSDL version 423,2013-01-08 19:55:00,
2013-01-08 13:59:00,62.2,31.2,30.15,North,-999,-999.0,-999.0,31,-99.99,,,-99.99,WSDL version 423,2013-01-08 19:59:00,
2013-01-08 14:00:00,62.0,31.0,30.15,North,-999,-999.0,-999.0,31,-99.99,,,-99.99,WSDL version 423,2013-01-08 20:00:00,
2013-01-08 14:01:00,61.8,30.9,30.15,North,-999,-999.0,-999.0,31,-99.99,,,-99.99,WSDL version 423,2013-01-08 20:01:00,
2013-01-08 14:04:00,61.5,30.6,30.15,North,-999,-999.0,-999.0,31,-99.99,,,-99.99,WSDL version 423,2013-01-08 20:04:00,
2013-01-08 14:06:00,61.5,30.6,30.15,North,-999,-999.0,-999.0,31,-99.99,,,-99.99,WSDL version 423,2013-01-08 20:06:00,
2013-01-08 14:09:00,61.4,30.5,30.15,North,-999,-999.0,-999.0,31,-99.99,,,-99.99,WSDL version 423,2013-01-08 20:09:00,
2013-01-08 14:10:00,61.4,30.5,30.15,North,-999,-999.0,-999.0,31,-99.99,,,-99.99,WSDL version 423,2013-01-08 20:10:00,
2013-01-08 14:14:00,61.3,30.4,30.12,North,-999,-999.0,-999.0,31,-99.99,,,-99.99,WSDL version 423,2013-01-08 20:14:00,
2013-01-08 14:15:00,61.3,30.4,30.12,North,-999,-999.0,-999.0,31,-99.99,,,-99.99,WSDL version 423,2013-01-08 20:15:00,
2013-01-08 14:20:00,61.2,30.3,30.12,North,-999,-999.0,-999.0,31,-99.99,,,-99.99,WSDL version 423,2013-01-08 20:20:00,
2013-01-08 14:21:00,61.2,30.3,30.12,North,-999,-999.0,-999.0,31,-99.99,,,-99.99,WSDL version 423,2013-01-08 20:21:00,
2013-01-08 14:26:00,61.1,30.3,30.12,North,-999,-999.0,-999.0,31,-99.99,,,-99.99,WSDL version 423,2013-01-08 20:26:00,
2013-01-08 14:28:00,61.1,30.3,30.12,North,-999,-999.0,-999.0,31,-99.99,,,-99.99,WSDL version 423,2013-01-08 20:28:00,
2013-01-08 14:33:00,61.1,30.2,30.12,South,180,3.4,3.4,31,-99.99,,,-99.99,WSDL version 423,2013-01-08 20:33:00,
2013-01-08 14:34:00,60.9,30.1,30.12,South,180,3.4,3.4,31,-99.99,,,-99.99,WSDL version 423,2013-01-08 20:34:00,
2013-01-08 14:35:00,60.9,30.1,30.12,SSW,203,3.0,3.4,31,-99.99,,,-99.99,WSDL version 423,2013-01-08 20:35:00,
2013-01-08 14:36:00,60.7,29.9,30.12,SW,225,2.7,3.4,31,-99.99,,,-99.99,WSDL version 423,2013-01-08 20:36:00,
2013-01-08 14:39:00,60.5,29.8,30.12,SSE,158,3.1,3.4,31,-99.99,,,-99.99,WSDL version 423,2013-01-08 20:39:00,
2013-01-08 14:40:00,60.5,29.7,30.12,North,0,0.0,3.4,31,-99.99,,,-99.99,WSDL version 423,2013-01-08 20:40:00,
2013-01-08 14:41:00,60.5,29.7,30.12,North,0,0.0,3.4,31,-99.99,,,-99.99,WSDL version 423,2013-01-08 20:41:00,
2013-01-08 14:45:00,60.3,29.5,30.12,South,180,2.9,3.8,31,-99.99,,,-99.99,WSDL version 423,2013-01-08 20:45:00,
2013-01-08 14:46:00,60.2,29.5,30.12,North,0,0.0,3.8,31,-99.99,,,-99.99,WSDL version 423,2013-01-08 20:46:00,
2013-01-08 14:48:00,60.2,29.5,30.12,North,0,0.0,3.8,31,-99.99,,,-99.99,WSDL version 423,2013-01-08 20:48:00,
2013-01-08 14:50:00,60.2,29.5,30.12,North,-999,-999.0,-999.0,31,-99.99,,,-99.99,WSDL version 423,2013-01-08 20:50:00,
2013-01-08 14:51:00,60.2,29.5,30.12,North,-999,-999.0,-999.0,31,-99.99,,,-99.99,WSDL version 423,2013-01-08 20:51:00,
2013-01-08 14:53:00,60.1,29.4,30.12,SW,225,2.2,3.4,31,-99.99,,,-99.99,WSDL version 423,2013-01-08 20:53:00,
2013-01-08 14:55:00,60.1,29.5,30.12,North,0,0.0,3.1,32,-99.99,,,-99.99,WSDL version 423,2013-01-08 20:55:00,
2013-01-08 14:56:00,60.1,29.5,30.12,SSE,158,2.2,3.1,31,-99.99,,,-99.99,WSDL version 423,2013-01-08 20:56:00,
2013-01-08 15:01:00,59.9,29.2,30.12,ESE,113,2.7,5.6,31,-99.99,,,-99.99,WSDL version 423,2013-01-08 21:01:00,
2013-01-08 15:02:00,59.8,29.1,30.12,SE,143,2.4,5.6,31,-99.99,,,-99.99,WSDL version 423,2013-01-08 21:02:00,
2013-01-08 15:05:00,59.7,29.2,30.12,SSE,150,2.9,5.6,31,-99.99,,,-99.99,WSDL version 423,2013-01-08 21:05:00,
2013-01-08 15:07:00,59.6,29.5,30.12,SW,236,2.2,5.6,32,-99.99,,,-99.99,WSDL version 423,2013-01-08 21:07:00,
2013-01-08 15:10:00,59.5,29.6,30.12,South,173,1.3,4.9,32,-99.99,,,-99.99,WSDL version 423,2013-01-08 21:10:00,
2013-01-08 15:11:00,59.5,29.6,30.12,South,191,1.3,4.9,32,-99.99,,,-99.99,WSDL version 423,2013-01-08 21:11:00,
2013-01-08 15:16:00,59.4,29.6,30.12,SE,135,2.7,3.1,32,-99.99,,,-99.99,WSDL version 423,2013-01-08 21:16:00,
2013-01-08 15:17:00,59.4,29.5,30.12,WSW,248,2.0,3.1,32,-99.99,,,-99.99,WSDL version 423,2013-01-08 21:17:00,
2013-01-08 15:21:00,59.4,29.6,30.12,WSW,248,2.5,3.4,32,-99.99,,,-99.99,WSDL version 423,2013-01-08 21:21:00,
2013-01-08 15:22:00,59.5,29.6,30.12,WSW,248,2.0,3.4,32,-99.99,,,-99.99,WSDL version 423,2013-01-08 21:22:00,
2013-01-08 15:23:00,59.5,29.6,30.12,South,180,0.9,3.4,32,-99.99,,,-99.99,WSDL version 423,2013-01-08 21:23:00,
2013-01-08 15:27:00,59.3,29.5,30.12,South,180,2.3,3.4,32,-99.99,,,-99.99,WSDL version 423,2013-01-08 21:27:00,
2013-01-08 15:28:00,59.3,29.5,30.12,SE,135,2.9,3.6,32,-99.99,,,-99.99,WSDL version 423,2013-01-08 21:28:00,
2013-01-08 15:31:00,59.3,29.5,30.12,South,191,1.8,3.6,32,-99.99,,,-99.99,WSDL version 423,2013-01-08 21:31:00,
2013-01-08 15:32:00,59.3,29.4,30.12,South,191,0.8,3.6,32,-99.99,,,-99.99,WSDL version 423,2013-01-08 21:32:00,
2013-01-08 15:36:00,59.1,29.3,30.12,South,180,1.3,3.6,32,-99.99,,,-99.99,WSDL version 423,2013-01-08 21:36:00,
2013-01-08 15:38:00,58.9,29.1,30.12,South,169,2.2,2.7,32,-99.99,,,-99.99,WSDL version 423,2013-01-08 21:38:00,
2013-01-08 15:40:00,58.8,29.1,30.12,SW,218,1.4,2.7,32,-99.99,,,-99.99,WSDL version 423,2013-01-08 21:40:00,
2013-01-08 15:41:00,58.8,29.0,30.12,South,191,1.1,2.7,32,-99.99,,,-99.99,WSDL version 423,2013-01-08 21:41:00,
2013-01-08 15:43:00,58.8,29.0,30.12,South,180,1.0,2.7,32,-99.99,,,-99.99,WSDL version 423,2013-01-08 21:43:00,
2013-01-08 15:45:00,58.8,29.0,30.12,WSW,248,0.0,2.7,32,-99.99,,,-99.99,WSDL version 423,2013-01-08 21:45:00,
2013-01-08 15:46:00,58.8,29.0,30.12,SSW,203,0.0,2.7,32,-99.99,,,-99.99,WSDL version 423,2013-01-08 21:46:00,
2013-01-08 15:48:00,58.7,29.0,30.12,North,0,0.0,2.7,32,-99.99,,,-99.99,WSDL version 423,2013-01-08 21:48:00,
2013-01-08 15:50:00,58.7,28.9,30.12,SSE,158,0.0,2.7,32,-99.99,,,-99.99,WSDL version 423,2013-01-08 21:50:00,
2013-01-08 15:51:00,58.6,28.8,30.12,SSE,158,0.0,2.7,32,-99.99,,,-99.99,WSDL version 423,2013-01-08 21:51:00,
2013-01-08 15:56:00,58.4,28.8,30.12,SE,135,1.3,2.0,33,-99.99,,,-99.99,WSDL version 423,2013-01-08 21:56:00,
2013-01-08 15:57:00,58.3,28.9,30.12,SSE,158,1.1,2.0,33,-99.99,,,-99.99,WSDL version 423,2013-01-08 21:57:00,
2013-01-08 15:59:00,58.2,29.1,30.12,SSE,158,0.0,2.0,33,-99.99,,,-99.99,WSDL version 423,2013-01-08 21:59:00,
2013-01-08 16:02:00,58.0,29.1,30.12,SSE,158,0.0,2.0,33,-99.99,,,-99.99,WSDL version 423,2013-01-08 22:02:00,
2013-01-08 16:03:00,58.0,29.0,30.12,SSE,158,0.6,2.0,33,-99.99,,,-99.99,WSDL version 423,2013-01-08 22:03:00,
2013-01-08 16:07:00,57.6,28.8,30.12,SSE,158,0.6,1.1,33,-99.99,,,-99.99,WSDL version 423,2013-01-08 22:07:00,
2013-01-08 16:08:00,57.6,28.7,30.12,SSE,158,0.6,1.1,33,-99.99,,,-99.99,WSDL version 423,2013-01-08 22:08:00,
2013-01-08 16:10:00,57.5,28.6,30.12,SSE,158,0.0,1.1,33,-99.99,,,-99.99,WSDL version 423,2013-01-08 22:10:00,
2013-01-08 16:13:00,57.4,28.5,30.12,SSE,158,0.0,0.0,33,-99.99,,,-99.99,WSDL version 423,2013-01-08 22:13:00,
2013-01-08 16:16:00,57.4,28.5,30.12,SSE,158,0.0,0.0,33,-99.99,,,-99.99,WSDL version 423,2013-01-08 22:16:00,
2013-01-08 16:18:00,57.4,28.5,30.12,SSE,158,0.0,0.0,33,-99.99,,,-99.99,WSDL version 423,2013-01-08 22:18:00,
2013-01-08 16:22:00,57.2,28.4,30.12,SSE,158,0.0,1.1,33,-99.99,,,-99.99,WSDL version 423,2013-01-08 22:22:00,
2013-01-08 16:23:00,57.2,28.4,30.12,SSE,158,0.0,1.1,33,-99.99,,,-99.99,WSDL version 423,2013-01-08 22:23:00,
2013-01-08 16:24:00,57.1,28.3,30.12,SSE,158,0.0,1.1,33,-99.99,,,-99.99,WSDL version 423,2013-01-08 22:24:00,
2013-01-08 16:29:00,57.0,28.5,30.12,SSE,158,0.0,1.1,34,-99.99,,,-99.99,WSDL version 423,2013-01-08 22:29:00,
2013-01-08 16:30:00,56.9,28.6,30.12,SSE,158,0.0,0.9,34,-99.99,,,-99.99,WSDL version 423,2013-01-08 22:30:00,
2013-01-08 16:31:00,56.9,28.7,30.12,SSE,158,0.0,0.0,34,-99.99,,,-99.99,WSDL version 423,2013-01-08 22:31:00,
2013-01-08 16:35:00,56.6,28.6,30.12,SSE,158,0.0,0.0,34,-99.99,,,-99.99,WSDL version 423,2013-01-08 22:35:00,
2013-01-08 16:36:00,56.5,28.5,30.12,SSE,158,0.0,1.3,34,-99.99,,,-99.99,WSDL version 423,2013-01-08 22:36:00,
2013-01-08 16:37:00,56.4,28.4,30.12,SSE,158,0.1,1.3,34,-99.99,,,-99.99,WSDL version 423,2013-01-08 22:37:00,
2013-01-08 16:40:00,56.1,28.1,30.12,SSE,158,1.1,1.6,34,-99.99,,,-99.99,WSDL version 423,2013-01-08 22:40:00,
2013-01-08 16:42:00,55.8,27.9,30.12,SSE,158,0.9,1.6,34,-99.99,,,-99.99,WSDL version 423,2013-01-08 22:42:00,
2013-01-08 16:43:00,55.7,27.8,30.12,SSE,158,0.2,1.6,34,-99.99,,,-99.99,WSDL version 423,2013-01-08 22:43:00,
2013-01-08 16:45:00,55.6,27.7,30.12,SSE,158,0.0,1.6,34,-99.99,,,-99.99,WSDL version 423,2013-01-08 22:45:00,
2013-01-08 16:48:00,55.5,27.7,30.12,SSE,158,0.0,1.3,35,-99.99,,,-99.99,WSDL version 423,2013-01-08 22:48:00,
2013-01-08 16:49:00,55.5,27.8,30.12,SSE,158,0.0,1.3,35,-99.99,,,-99.99,WSDL version 423,2013-01-08 22:49:00,
2013-01-08 16:53:00,55.4,28.2,30.12,SSW,196,0.0,0.0,35,-99.99,,,-99.99,WSDL version 423,2013-01-08 22:53:00,
2013-01-08 16:56:00,55.3,28.1,30.12,WNW,293,1.2,1.6,35,-99.99,,,-99.99,WSDL version 423,2013-01-08 22:56:00,
2013-01-08 16:58:00,55.2,28.0,30.15,WNW,293,0.7,1.6,35,-99.99,,,-99.99,WSDL version 423,2013-01-08 22:58:00,
2013-01-08 17:03:00,55.0,27.9,30.15,WNW,293,0.0,1.6,35,-99.99,,,-99.99,WSDL version 423,2013-01-08 23:03:00,
2013-01-08 17:04:00,54.9,27.8,30.15,WNW,293,0.0,1.6,35,-99.99,,,-99.99,WSDL version 423,2013-01-08 23:04:00,
2013-01-08 17:05:00,54.9,27.8,30.15,WNW,293,0.0,1.3,35,-99.99,,,-99.99,WSDL version 423,2013-01-08 23:05:00,
2013-01-08 17:10:00,54.6,27.9,30.15,WNW,293,0.0,0.0,36,-99.99,,,-99.99,WSDL version 423,2013-01-08 23:10:00,
2013-01-08 17:11:00,54.5,28.0,30.15,WNW,293,0.0,0.0,36,-99.99,,,-99.99,WSDL version 423,2013-01-08 23:11:00,
2013-01-08 17:16:00,54.0,27.6,30.15,WNW,293,0.0,0.0,36,-99.99,,,-99.99,WSDL version 423,2013-01-08 23:16:00,
2013-01-08 17:18:00,53.7,27.7,30.15,WNW,293,0.0,0.9,37,-99.99,,,-99.99,WSDL version 423,2013-01-08 23:18:00,
2013-01-08 17:20:00,53.6,27.8,30.15,WNW,293,0.0,0.9,37,-99.99,,,-99.99,WSDL version 423,2013-01-08 23:20:00,
2013-01-08 17:21:00,53.5,27.9,30.15,WNW,293,0.0,1.6,37,-99.99,,,-99.99,WSDL version 423,2013-01-08 23:21:00,
2013-01-08 17:23:00,53.5,28.1,30.15,WNW,293,0.8,1.6,38,-99.99,,,-99.99,WSDL version 423,2013-01-08 23:23:00,
2013-01-08 17:28:00,53.4,28.3,30.15,WNW,293,0.0,1.6,38,-99.99,,,-99.99,WSDL version 423,2013-01-08 23:28:00,
2013-01-08 17:29:00,53.4,28.3,30.15,WNW,293,0.0,1.6,38,-99.99,,,-99.99,WSDL version 423,2013-01-08 23:29:00,
2013-01-08 17:32:00,53.2,28.1,30.15,WNW,293,0.0,1.6,38,-99.99,,,-99.99,WSDL version 423,2013-01-08 23:32:00,
2013-01-08 17:34:00,53.0,28.2,30.15,WNW,293,0.0,1.3,39,-99.99,,,-99.99,WSDL version 423,2013-01-08 23:34:00,
2013-01-08 17:35:00,52.8,28.2,30.15,West,281,0.0,0.0,39,-99.99,,,-99.99,WSDL version 423,2013-01-08 23:35:00,
2013-01-08 17:40:00,52.4,28.3,30.15,SW,225,0.0,0.0,40,-99.99,,,-99.99,WSDL version 423,2013-01-08 23:40:00,
2013-01-08 17:41:00,52.4,28.4,30.15,SW,225,0.0,0.0,40,-99.99,,,-99.99,WSDL version 423,2013-01-08 23:41:00,
2013-01-08 17:42:00,52.4,28.4,30.15,SW,225,0.0,0.0,40,-99.99,,,-99.99,WSDL version 423,2013-01-08 23:42:00,
2013-01-08 17:46:00,52.1,28.7,30.15,SE,135,0.3,1.6,41,-99.99,,,-99.99,WSDL version 423,2013-01-08 23:46:00,
2013-01-08 17:47:00,52.1,28.9,30.15,SE,135,1.0,1.6,41,-99.99,,,-99.99,WSDL version 423,2013-01-08 23:47:00,
2013-01-08 17:51:00,51.7,28.8,30.15,SE,135,0.0,1.6,41,-99.99,,,-99.99,WSDL version 423,2013-01-08 23:51:00,
2013-01-08 17:52:00,51.6,28.7,30.15,SE,135,0.0,1.6,41,-99.99,,,-99.99,WSDL version 423,2013-01-08 23:52:00,
2013-01-08 17:56:00,51.3,28.9,30.15,SE,135,0.0,0.0,42,-99.99,,,-99.99,WSDL version 423,2013-01-08 23:56:00,
2013-01-08 17:57:00,51.3,29.0,30.15,SE,135,0.0,0.0,42,-99.99,,,-99.99,WSDL version 423,2013-01-08 23:57:00,
2013-01-08 18:02:00,51.2,29.2,30.15,SE,135,0.3,1.3,42,-99.99,,,-99.99,WSDL version 423,2013-01-09 00:02:00,
2013-01-08 18:03:00,51.2,29.2,30.15,SE,135,0.0,1.3,42,-99.99,,,-99.99,WSDL version 423,2013-01-09 00:03:00,
2013-01-08 18:05:00,51.2,29.2,30.15,SE,135,0.0,1.3,42,-99.99,,,-99.99,WSDL version 423,2013-01-09 00:05:00,
2013-01-08 18:10:00,51.1,29.1,30.15,SE,135,0.0,0.9,42,-99.99,,,-99.99,WSDL version 423,2013-01-09 00:10:00,
2013-01-08 18:11:00,51.1,29.0,30.15,SE,135,0.0,0.0,42,-99.99,,,-99.99,WSDL version 423,2013-01-09 00:11:00,
2013-01-08 18:15:00,51.1,29.0,30.15,SE,135,0.0,0.0,42,-99.99,,,-99.99,WSDL version 423,2013-01-09 00:15:00,
2013-01-08 18:18:00,50.9,28.9,30.15,SSW,203,0.0,1.6,42,-99.99,,,-99.99,WSDL version 423,2013-01-09 00:18:00,
2013-01-08 18:20:00,50.9,28.8,30.15,SSW,203,1.3,2.0,42,-99.99,,,-99.99,WSDL version 423,2013-01-09 00:20:00,
2013-01-08 18:22:00,50.9,28.8,30.15,SSW,203,0.0,2.0,42,-99.99,,,-99.99,WSDL version 423,2013-01-09 00:22:00,
2013-01-08 18:25:00,50.7,28.9,30.15,SSW,203,0.0,2.0,43,-99.99,,,-99.99,WSDL version 423,2013-01-09 00:25:00,
2013-01-08 18:26:00,50.6,28.9,30.15,SSW,203,0.0,2.0,43,-99.99,,,-99.99,WSDL version 423,2013-01-09 00:26:00,
2013-01-08 18:30:00,50.2,28.8,30.12,SSW,203,0.0,0.0,43,-99.99,,,-99.99,WSDL version 423,2013-01-09 00:30:00,
2013-01-08 18:31:00,50.2,28.7,30.12,SSW,203,0.0,1.6,43,-99.99,,,-99.99,WSDL version 423,2013-01-09 00:31:00,
2013-01-08 18:32:00,50.2,28.7,30.12,SSW,203,1.0,1.6,43,-99.99,,,-99.99,WSDL version 423,2013-01-09 00:32:00,
2013-01-08 18:36:00,50.3,28.9,30.12,SSW,203,0.0,1.6,43,-99.99,,,-99.99,WSDL version 423,2013-01-09 00:36:00,
2013-01-08 18:40:00,50.3,28.9,30.12,SSW,203,0.0,1.6,43,-99.99,,,-99.99,WSDL version 423,2013-01-09 00:40:00,
2013-01-08 18:42:00,50.3,28.8,30.12,SSW,203,0.0,0.0,43,-99.99,,,-99.99,WSDL version 423,2013-01-09 00:42:00,
2013-01-08 18:43:00,50.3,28.8,30.12,SSW,203,0.0,0.0,43,-99.99,,,-99.99,WSDL version 423,2013-01-09 00:43:00,
2013-01-08 18:46:00,50.2,28.7,30.12,SSW,203,0.0,0.0,43,-99.99,,,-99.99,WSDL version 423,2013-01-09 00:46:00,
2013-01-08 18:47:00,50.2,28.7,30.12,SSW,203,0.0,0.0,43,-99.99,,,-99.99,WSDL version 423,2013-01-09 00:47:00,
2013-01-08 18:51:00,50.3,28.8,30.12,North,0,0.0,1.3,43,-99.99,,,-99.99,WSDL version 423,2013-01-09 00:51:00,
2013-01-08 18:52:00,50.3,28.9,30.12,North,0,0.0,1.3,43,-99.99,,,-99.99,WSDL version 423,2013-01-09 00:52:00,
2013-01-08 18:57:00,50.6,29.1,30.12,SSW,203,0.0,1.3,43,-99.99,,,-99.99,WSDL version 423,2013-01-09 00:57:00,
2013-01-08 18:59:00,50.6,29.1,30.12,SSW,203,0.0,1.1,43,-99.99,,,-99.99,WSDL version 423,2013-01-09 00:59:00,
2013-01-08 19:01:00,50.5,29.0,30.12,SSW,203,0.0,1.1,43,-99.99,,,-99.99,WSDL version 423,2013-01-09 01:01:00,
2013-01-08 19:04:00,50.4,29.2,30.12,SSW,203,0.0,0.0,44,-99.99,,,-99.99,WSDL version 423,2013-01-09 01:04:00,
2013-01-08 19:07:00,50.3,29.4,30.12,SSW,203,0.0,0.0,44,-99.99,,,-99.99,WSDL version 423,2013-01-09 01:07:00,
2013-01-08 19:09:00,50.3,29.4,30.12,SSW,203,0.0,0.0,44,-99.99,,,-99.99,WSDL version 423,2013-01-09 01:09:00,
2013-01-08 19:12:00,50.3,29.4,30.12,SSW,203,0.0,0.0,44,-99.99,,,-99.99,WSDL version 423,2013-01-09 01:12:00,
2013-01-08 19:14:00,50.3,29.4,30.12,North,0,0.0,0.0,44,-99.99,,,-99.99,WSDL version 423,2013-01-09 01:14:00,
2013-01-08 19:18:00,50.0,29.1,30.12,North,-999,-999.0,-999.0,44,-99.99,,,-99.99,WSDL version 423,2013-01-09 01:18:00,
2013-01-08 19:19:00,49.9,29.0,30.12,North,-999,-999.0,-999.0,44,-99.99,,,-99.99,WSDL version 423,2013-01-09 01:19:00,
2013-01-08 19:23:00,49.8,28.9,30.12,North,-999,-999.0,-999.0,44,-99.99,,,-99.99,WSDL version 423,2013-01-09 01:23:00,
2013-01-08 19:25:00,49.9,29.0,30.12,North,-999,-999.0,-999.0,44,-99.99,,,-99.99,WSDL version 423,2013-01-09 01:25:00,
2013-01-08 19:28:00,50.0,29.1,30.12,North,-999,-999.0,-999.0,44,-99.99,,,-99.99,WSDL version 423,2013-01-09 01:28:00,
2013-01-08 19:29:00,50.0,29.1,30.12,North,-999,-999.0,-999.0,44,-99.99,,,-99.99,WSDL version 423,2013-01-09 01:29:00,
2013-01-08 19:32:00,50.0,29.0,30.12,North,-999,-999.0,-999.0,44,-99.99,,,-99.99,WSDL version 423,2013-01-09 01:32:00,
2013-01-08 19:35:00,49.9,28.9,30.12,SSW,203,0.0,0.0,44,-99.99,,,-99.99,WSDL version 423,2013-01-09 01:35:00,
2013-01-08 19:37:00,49.8,28.9,30.12,SSW,203,0.0,0.0,44,-99.99,,,-99.99,WSDL version 423,2013-01-09 01:37:00,
2013-01-08 19:40:00,49.7,28.8,30.12,SSW,203,0.0,0.0,44,-99.99,,,-99.99,WSDL version 423,2013-01-09 01:40:00,
2013-01-08 19:41:00,49.6,28.7,30.12,SSW,203,0.0,0.0,44,-99.99,,,-99.99,WSDL version 423,2013-01-09 01:41:00,
2013-01-08 19:45:00,49.6,28.7,30.12,SSW,203,0.0,0.0,44,-99.99,,,-99.99,WSDL version 423,2013-01-09 01:45:00,
2013-01-08 19:46:00,49.6,28.7,30.12,SSW,203,0.0,1.1,44,-99.99,,,-99.99,WSDL version 423,2013-01-09 01:46:00,
2013-01-08 19:49:00,49.5,29.0,30.12,SSW,203,0.0,1.1,45,-99.99,,,-99.99,WSDL version 423,2013-01-09 01:49:00,
2013-01-08 19:51:00,49.4,29.0,30.12,SSW,203,0.0,1.1,45,-99.99,,,-99.99,WSDL version 423,2013-01-09 01:51:00,
2013-01-08 19:52:00,49.3,28.9,30.12,SSW,203,0.0,1.1,45,-99.99,,,-99.99,WSDL version 423,2013-01-09 01:52:00,
2013-01-08 19:56:00,49.0,28.7,30.12,SSW,203,0.0,0.0,45,-99.99,,,-99.99,WSDL version 423,2013-01-09 01:56:00,
2013-01-08 20:00:00,48.9,28.6,30.12,SSW,203,0.0,0.0,45,-99.99,,,-99.99,WSDL version 423,2013-01-09 02:00:00,
2013-01-08 20:01:00,48.9,28.6,30.12,SSW,203,0.0,0.0,45,-99.99,,,-99.99,WSDL version 423,2013-01-09 02:01:00,
2013-01-08 20:03:00,48.9,28.6,30.12,SSW,203,0.0,0.0,45,-99.99,,,-99.99,WSDL version 423,2013-01-09 02:03:00,
2013-01-08 20:04:00,48.9,28.6,30.12,SSW,203,0.0,0.0,45,-99.99,,,-99.99,WSDL version 423,2013-01-09 02:04:00,
2013-01-08 20:06:00,49.0,28.7,30.12,SSW,203,0.0,0.0,45,-99.99,,,-99.99,WSDL version 423,2013-01-09 02:06:00,
2013-01-08 20:10:00,49.0,28.6,30.12,SSW,203,0.0,0.0,45,-99.99,,,-99.99,WSDL version 423,2013-01-09 02:10:00,
2013-01-08 20:11:00,48.9,28.6,30.12,SSW,203,0.0,0.0,45,-99.99,,,-99.99,WSDL version 423,2013-01-09 02:11:00,
2013-01-08 20:13:00,48.9,28.6,30.15,SSW,203,0.0,0.0,45,-99.99,,,-99.99,WSDL version 423,2013-01-09 02:13:00,
2013-01-08 20:16:00,48.8,28.8,30.15,SSW,203,0.0,0.0,46,-99.99,,,-99.99,WSDL version 423,2013-01-09 02:16:00,
2013-01-08 20:18:00,48.8,28.9,30.15,SSW,203,0.0,0.0,46,-99.99,,,-99.99,WSDL version 423,2013-01-09 02:18:00,
2013-01-08 20:21:00,48.8,29.0,30.15,SSW,203,0.0,0.0,46,-99.99,,,-99.99,WSDL version 423,2013-01-09 02:21:00,
2013-01-08 20:23:00,48.9,29.1,30.15,SSW,203,0.0,0.0,46,-99.99,,,-99.99,WSDL version 423,2013-01-09 02:23:00,
2013-01-08 20:27:00,49.1,29.2,30.15,SSW,203,0.0,0.0,46,-99.99,,,-99.99,WSDL version 423,2013-01-09 02:27:00,
2013-01-08 20:32:00,49.1,29.2,30.15,SSW,203,0.7,1.6,46,-99.99,,,-99.99,WSDL version 423,2013-01-09 02:32:00,
2013-01-08 20:33:00,49.1,29.2,30.15,SSW,203,1.1,1.6,46,-99.99,,,-99.99,WSDL version 423,2013-01-09 02:33:00,
2013-01-08 20:37:00,49.2,29.4,30.15,SSW,203,0.0,1.6,46,-99.99,,,-99.99,WSDL version 423,2013-01-09 02:37:00,
2013-01-08 20:41:00,49.4,29.5,30.15,SSW,203,0.6,1.6,46,-99.99,,,-99.99,WSDL version 423,2013-01-09 02:41:00,
2013-01-08 20:43:00,49.4,29.5,30.15,SSW,203,0.0,1.6,46,-99.99,,,-99.99,WSDL version 423,2013-01-09 02:43:00,
2013-01-08 20:44:00,49.4,29.6,30.15,SSW,203,0.7,1.3,46,-99.99,,,-99.99,WSDL version 423,2013-01-09 02:44:00,
2013-01-08 20:47:00,49.6,29.7,30.15,SSW,203,0.0,1.3,46,-99.99,,,-99.99,WSDL version 423,2013-01-09 02:47:00,
2013-01-08 20:50:00,49.6,29.7,30.15,SSW,203,0.0,1.3,46,-99.99,,,-99.99,WSDL version 423,2013-01-09 02:50:00,
2013-01-08 20:55:00,49.8,29.9,30.15,SSW,203,0.0,0.0,46,-99.99,,,-99.99,WSDL version 423,2013-01-09 02:55:00,
2013-01-08 20:56:00,49.8,29.9,30.15,SSW,203,0.0,0.0,46,-99.99,,,-99.99,WSDL version 423,2013-01-09 02:56:00,
2013-01-08 20:58:00,49.8,29.9,30.15,SSW,203,0.0,0.0,46,-99.99,,,-99.99,WSDL version 423,2013-01-09 02:58:00,
2013-01-08 21:00:00,49.8,29.9,30.15,SSW,203,0.0,0.0,46,-99.99,,,-99.99,WSDL version 423,2013-01-09 03:00:00,
2013-01-08 21:03:00,49.8,29.9,30.15,SSW,203,0.0,0.0,46,-99.99,,,-99.99,WSDL version 423,2013-01-09 03:03:00,
2013-01-08 21:04:00,49.8,29.9,30.15,SSW,203,0.0,0.0,46,-99.99,,,-99.99,WSDL version 423,2013-01-09 03:04:00,
2013-01-08 21:05:00,49.8,29.9,30.15,SSW,203,0.0,0.0,46,-99.99,,,-99.99,WSDL version 423,2013-01-09 03:05:00,
2013-01-08 21:10:00,49.8,29.9,30.15,SSW,203,0.0,0.0,46,-99.99,,,-99.99,WSDL version 423,2013-01-09 03:10:00,
2013-01-08 21:16:00,49.8,29.9,30.15,SSW,203,0.0,0.0,46,-99.99,,,-99.99,WSDL version 423,2013-01-09 03:16:00,
2013-01-08 21:19:00,49.8,29.9,30.15,SSW,203,0.0,0.0,46,-99.99,,,-99.99,WSDL version 423,2013-01-09 03:19:00,
2013-01-08 21:21:00,49.8,29.9,30.15,SSW,203,0.0,0.0,46,-99.99,,,-99.99,WSDL version 423,2013-01-09 03:21:00,
2013-01-08 21:23:00,49.8,29.9,30.15,SSW,203,0.0,0.0,46,-99.99,,,-99.99,WSDL version 423,2013-01-09 03:23:00,
2013-01-08 21:26:00,49.8,29.9,30.15,SSW,203,0.0,0.0,46,-99.99,,,-99.99,WSDL version 423,2013-01-09 03:26:00,
2013-01-08 21:29:00,49.7,29.8,30.15,SSW,203,0.0,0.0,46,-99.99,,,-99.99,WSDL version 423,2013-01-09 03:29:00,
2013-01-08 21:30:00,49.7,29.8,30.15,SSW,203,0.0,0.0,46,-99.99,,,-99.99,WSDL version 423,2013-01-09 03:30:00,
2013-01-08 21:31:00,49.7,29.9,30.15,SSW,203,0.0,0.0,47,-99.99,,,-99.99,WSDL version 423,2013-01-09 03:31:00,
2013-01-08 21:36:00,49.8,30.8,30.15,SSW,203,0.3,1.1,48,-99.99,,,-99.99,WSDL version 423,2013-01-09 03:36:00,
2013-01-08 21:37:00,49.8,30.8,30.15,SSW,203,0.0,1.1,48,-99.99,,,-99.99,WSDL version 423,2013-01-09 03:37:00,
2013-01-08 21:41:00,49.8,31.5,30.15,SSW,203,0.8,1.6,49,-99.99,,,-99.99,WSDL version 423,2013-01-09 03:41:00,
2013-01-08 21:42:00,49.8,31.6,30.12,SSW,203,0.4,1.6,49,-99.99,,,-99.99,WSDL version 423,2013-01-09 03:42:00,
2013-01-08 21:43:00,49.8,31.5,30.12,SSW,203,0.0,1.6,48,-99.99,,,-99.99,WSDL version 423,2013-01-09 03:43:00,
2013-01-08 21:48:00,49.6,30.6,30.12,SSW,203,0.0,1.3,48,-99.99,,,-99.99,WSDL version 423,2013-01-09 03:48:00,
2013-01-08 21:50:00,49.5,30.7,30.12,SSW,203,0.0,1.1,49,-99.99,,,-99.99,WSDL version 423,2013-01-09 03:50:00,
2013-01-08 21:53:00,49.4,30.7,30.12,SSW,203,0.0,1.1,48,-99.99,,,-99.99,WSDL version 423,2013-01-09 03:53:00,
2013-01-08 21:55:00,49.2,30.4,30.12,SSW,203,0.0,1.1,48,-99.99,,,-99.99,WSDL version 423,2013-01-09 03:55:00,
2013-01-08 21:56:00,49.2,30.3,30.12,SSW,203,0.0,1.1,48,-99.99,,,-99.99,WSDL version 423,2013-01-09 03:56:00,
2013-01-08 21:58:00,49.0,30.1,30.15,SSW,203,0.0,1.1,48,-99.99,,,-99.99,WSDL version 423,2013-01-09 03:58:00,
2013-01-08 22:04:00,48.1,29.6,30.15,SSW,203,0.0,0.0,49,-99.99,,,-99.99,WSDL version 423,2013-01-09 04:04:00,
2013-01-08 22:05:00,48.0,29.6,30.15,SSW,203,0.0,0.0,49,-99.99,,,-99.99,WSDL version 423,2013-01-09 04:05:00,
2013-01-08 22:06:00,47.9,29.6,30.15,SSW,203,0.0,0.0,50,-99.99,,,-99.99,WSDL version 423,2013-01-09 04:06:00,
2013-01-08 22:10:00,47.7,29.8,30.15,SSW,203,0.0,0.0,50,-99.99,,,-99.99,WSDL version 423,2013-01-09 04:10:00,
2013-01-08 22:11:00,47.6,29.8,30.15,SSW,203,0.0,0.0,50,-99.99,,,-99.99,WSDL version 423,2013-01-09 04:11:00,
2013-01-08 22:15:00,47.5,29.7,30.15,SSW,203,0.0,0.0,50,-99.99,,,-99.99,WSDL version 423,2013-01-09 04:15:00,
2013-01-08 22:16:00,47.5,29.6,30.15,SSW,203,0.0,0.0,50,-99.99,,,-99.99,WSDL version 423,2013-01-09 04:16:00,
2013-01-08 22:19:00,47.3,29.7,30.15,SSW,203,0.0,0.0,51,-99.99,,,-99.99,WSDL version 423,2013-01-09 04:19:00,
2013-01-08 22:21:00,47.3,29.8,30.15,SSW,203,0.0,0.0,51,-99.99,,,-99.99,WSDL version 423,2013-01-09 04:21:00,
2013-01-08 22:26:00,47.2,29.6,30.15,SSW,203,0.0,0.0,51,-99.99,,,-99.99,WSDL version 423,2013-01-09 04:26:00,
2013-01-08 22:28:00,47.1,29.6,30.15,SSW,203,0.0,0.0,51,-99.99,,,-99.99,WSDL version 423,2013-01-09 04:28:00,
2013-01-08 22:32:00,47.0,29.6,30.15,SSW,203,0.0,0.0,51,-99.99,,,-99.99,WSDL version 423,2013-01-09 04:32:00,
2013-01-08 22:34:00,46.9,29.8,30.15,SSW,203,0.0,0.0,52,-99.99,,,-99.99,WSDL version 423,2013-01-09 04:34:00,
2013-01-08 22:39:00,46.8,29.9,30.15,SSW,203,0.0,0.0,52,-99.99,,,-99.99,WSDL version 423,2013-01-09 04:39:00,
2013-01-08 22:41:00,46.8,29.9,30.15,SSW,203,0.0,0.0,52,-99.99,,,-99.99,WSDL version 423,2013-01-09 04:41:00,
2013-01-08 22:43:00,46.8,30.0,30.15,SSW,203,0.0,0.0,52,-99.99,,,-99.99,WSDL version 423,2013-01-09 04:43:00,
2013-01-08 22:45:00,46.9,30.2,30.15,SSW,203,0.0,0.0,52,-99.99,,,-99.99,WSDL version 423,2013-01-09 04:45:00,
2013-01-08 22:50:00,47.1,30.2,30.15,SSW,203,0.0,0.0,52,-99.99,,,-99.99,WSDL version 423,2013-01-09 04:50:00,
2013-01-08 22:51:00,47.1,30.2,30.15,SSW,203,0.0,0.0,52,-99.99,,,-99.99,WSDL version 423,2013-01-09 04:51:00,
2013-01-08 22:52:00,47.1,30.2,30.15,SSW,203,0.0,0.0,52,-99.99,,,-99.99,WSDL version 423,2013-01-09 04:52:00,
2013-01-08 22:53:00,47.0,30.3,30.15,SSW,203,0.0,0.0,52,-99.99,,,-99.99,WSDL version 423,2013-01-09 04:53:00,
2013-01-08 22:57:00,46.9,30.4,30.15,SSW,203,0.0,0.0,52,-99.99,,,-99.99,WSDL version 423,2013-01-09 04:57:00,
2013-01-08 23:00:00,46.9,30.4,30.15,SSW,203,0.0,0.0,52,-99.99,,,-99.99,WSDL version 423,2013-01-09 05:00:00,
2013-01-08 23:04:00,46.9,30.4,30.15,SSW,203,0.0,0.0,52,-99.99,,,-99.99,WSDL version 423,2013-01-09 05:04:00,
2013-01-08 23:05:00,46.9,30.4,30.15,SSW,203,0.0,0.0,52,-99.99,,,-99.99,WSDL version 423,2013-01-09 05:05:00,
2013-01-08 23:07:00,47.0,30.4,30.15,SSW,203,0.0,0.0,52,-99.99,,,-99.99,WSDL version 423,2013-01-09 05:07:00,
2013-01-08 23:09:00,47.0,30.4,30.15,SSW,203,0.0,0.0,52,-99.99,,,-99.99,WSDL version 423,2013-01-09 05:09:00,
2013-01-08 23:11:00,47.1,30.4,30.15,SSW,203,0.0,0.9,52,-99.99,,,-99.99,WSDL version 423,2013-01-09 05:11:00,
2013-01-08 23:12:00,47.1,30.4,30.15,SSW,203,0.0,0.9,52,-99.99,,,-99.99,WSDL version 423,2013-01-09 05:12:00,
2013-01-08 23:16:00,47.2,30.5,30.15,SSW,203,1.1,1.6,52,-99.99,,,-99.99,WSDL version 423,2013-01-09 05:16:00,
2013-01-08 23:17:00,47.2,30.4,30.15,SSW,203,0.7,1.6,52,-99.99,,,-99.99,WSDL version 423,2013-01-09 05:17:00,
2013-01-08 23:18:00,47.2,30.4,30.15,SSW,203,0.4,1.6,52,-99.99,,,-99.99,WSDL version 423,2013-01-09 05:18:00,
2013-01-08 23:21:00,47.4,30.7,30.15,SSW,203,1.1,1.6,52,-99.99,,,-99.99,WSDL version 423,2013-01-09 05:21:00,
2013-01-08 23:23:00,47.5,31.0,30.15,SSW,203,0.9,1.6,52,-99.99,,,-99.99,WSDL version 423,2013-01-09 05:23:00,
2013-01-08 23:26:00,47.7,31.2,30.15,North,0,0.0,1.6,52,-99.99,,,-99.99,WSDL version 423,2013-01-09 05:26:00,
2013-01-08 23:27:00,47.8,31.2,30.15,North,-999,-999.0,-999.0,52,-99.99,,,-99.99,WSDL version 423,2013-01-09 05:27:00,
2013-01-08 23:30:00,47.9,31.3,30.15,SW,225,0.0,0.9,52,-99.99,,,-99.99,WSDL version 423,2013-01-09 05:30:00,
2013-01-08 23:31:00,47.9,31.3,30.15,SW,214,0.7,1.3,52,-99.99,,,-99.99,WSDL version 423,2013-01-09 05:31:00,
2013-01-08 23:34:00,48.0,31.4,30.15,SW,225,1.1,1.3,52,-99.99,,,-99.99,WSDL version 423,2013-01-09 05:34:00,
2013-01-08 23:35:00,48.0,31.4,30.15,SW,225,1.1,1.3,52,-99.99,,,-99.99,WSDL version 423,2013-01-09 05:35:00,
2013-01-08 23:37:00,48.1,31.3,30.15,SW,225,1.1,1.3,52,-99.99,,,-99.99,WSDL version 423,2013-01-09 05:37:00,
2013-01-08 23:42:00,48.4,31.3,30.15,North,-999,-999.0,-999.0,52,-99.99,,,-99.99,WSDL version 423,2013-01-09 05:42:00,
2013-01-08 23:43:00,48.4,31.3,30.15,North,-999,-999.0,-999.0,52,-99.99,,,-99.99,WSDL version 423,2013-01-09 05:43:00,
2013-01-08 23:45:00,48.4,31.3,30.15,SSW,203,1.2,1.6,52,-99.99,,,-99.99,WSDL version 423,2013-01-09 05:45:00,
2013-01-08 23:48:00,48.4,31.3,30.15,SW,225,0.0,1.6,52,-99.99,,,-99.99,WSDL version 423,2013-01-09 05:48:00,
2013-01-08 23:51:00,48.4,31.3,30.15,North,0,0.0,1.6,52,-99.99,,,-99.99,WSDL version 423,2013-01-09 05:51:00,
2013-01-08 23:52:00,48.4,31.4,30.15,SW,225,0.9,1.6,52,-99.99,,,-99.99,WSDL version 423,2013-01-09 05:52:00,
2013-01-08 23:54:00,48.4,31.4,30.15,North,0,0.0,1.6,52,-99.99,,,-99.99,WSDL version 423,2013-01-09 05:54:00,
2013-01-08 23:57:00,48.4,31.5,30.15,North,-999,-999.0,-999.0,52,-99.99,,,-99.99,WSDL version 423,2013-01-09 05:57:00,